FDB1604 WMKP-OMDB
Flight info
| Callsign | FDB1604 |
|---|---|
| Flight time | N/A |
| Altitude | 36000 |
| Route | MADUM DCT GUNIP N571 IDASO/N0458F380 N571 DOGET/N0452F400 N571 VUSET A454 PASOV B540 KUPMA/N0397F240 B540 MIVEK P574 IMPED |
| Aircraft | B738/M-SDE2E3FGHIRWXY/LB1 |
Departure
| Time | 2026-04-19 18:05 |
|---|---|
| Airport | Penang International Airport (WMKP) |
Arrival
| Time | N/A |
|---|---|
| Airport | Dubai International Airport (OMDB) |
| Time | Latitude | Longitude | Altitude | Speed | Heading |
|---|---|---|---|---|---|
| 2026-04-19 17:55 | 5.29250 | 100.26672 | 22 ft | 0 kts | 311° |
| 2026-04-19 17:59 | 5.29244 | 100.26678 | 26 ft | 2 kts | 311° |
| 2026-04-19 17:59 | 5.29233 | 100.26691 | 27 ft | 2 kts | 311° |
| 2026-04-19 18:00 | 5.29223 | 100.26702 | 26 ft | 2 kts | 311° |
| 2026-04-19 18:00 | 5.29213 | 100.26713 | 27 ft | 2 kts | 311° |
| 2026-04-19 18:00 | 5.29203 | 100.26725 | 24 ft | 2 kts | 311° |
| 2026-04-19 18:00 | 5.29195 | 100.26734 | 25 ft | 1 kts | 311° |
| 2026-04-19 18:01 | 5.29193 | 100.26736 | 25 ft | 0 kts | 311° |
| 2026-04-19 18:01 | 5.29194 | 100.26735 | 25 ft | 1 kts | 304° |
| 2026-04-19 18:02 | 5.29186 | 100.26726 | 26 ft | 5 kts | 228° |
| 2026-04-19 18:02 | 5.29085 | 100.26636 | 22 ft | 27 kts | 222° |
| 2026-04-19 18:02 | 5.28952 | 100.26518 | 22 ft | 16 kts | 221° |
| 2026-04-19 18:02 | 5.28886 | 100.26474 | 22 ft | 13 kts | 181° |
| 2026-04-19 18:03 | 5.28800 | 100.26539 | 22 ft | 12 kts | 129° |
| 2026-04-19 18:03 | 5.28734 | 100.26577 | 22 ft | 12 kts | 175° |
| 2026-04-19 18:03 | 5.28657 | 100.26623 | 22 ft | 12 kts | 132° |
| 2026-04-19 18:03 | 5.28637 | 100.26645 | 22 ft | 9 kts | 131° |
| 2026-04-19 18:04 | 5.28626 | 100.26693 | 25 ft | 10 kts | 53° |
| 2026-04-19 18:04 | 5.28809 | 100.26863 | 25 ft | 71 kts | 42° |
| 2026-04-19 18:04 | 5.29346 | 100.27350 | 25 ft | 136 kts | 42° |
| 2026-04-19 18:04 | 5.30182 | 100.28108 | 92 ft | 183 kts | 41° |
| 2026-04-19 18:05 | 5.31164 | 100.28992 | 769 ft | 193 kts | 42° |
| 2026-04-19 18:05 | 5.32146 | 100.29874 | 1741 ft | 185 kts | 47° |
| 2026-04-19 18:05 | 5.32663 | 100.31084 | 2303 ft | 206 kts | 90° |
| 2026-04-19 18:05 | 5.32441 | 100.32582 | 2571 ft | 232 kts | 101° |
| 2026-04-19 18:06 | 5.32169 | 100.34232 | 3021 ft | 246 kts | 98° |
| 2026-04-19 18:06 | 5.31936 | 100.36004 | 3452 ft | 266 kts | 97° |
| 2026-04-19 18:06 | 5.31739 | 100.37857 | 4225 ft | 270 kts | 95° |
| 2026-04-19 18:06 | 5.31560 | 100.39760 | 4676 ft | 272 kts | 95° |
| 2026-04-19 18:07 | 5.31100 | 100.43538 | 4882 ft | 274 kts | 110° |
| 2026-04-19 18:07 | 5.30093 | 100.45167 | 5101 ft | 278 kts | 131° |
| 2026-04-19 18:07 | 5.28769 | 100.46599 | 5692 ft | 282 kts | 133° |
| 2026-04-19 18:08 | 5.27426 | 100.48049 | 5867 ft | 284 kts | 133° |
| 2026-04-19 18:08 | 5.25879 | 100.49245 | 5880 ft | 282 kts | 156° |
| 2026-04-19 18:08 | 5.23981 | 100.49623 | 5901 ft | 280 kts | 183° |
| 2026-04-19 18:08 | 5.22097 | 100.49112 | 6195 ft | 285 kts | 207° |
| 2026-04-19 18:09 | 5.20488 | 100.47950 | 7011 ft | 285 kts | 221° |
| 2026-04-19 18:09 | 5.19013 | 100.46622 | 7855 ft | 285 kts | 223° |
| 2026-04-19 18:09 | 5.17548 | 100.45264 | 8638 ft | 289 kts | 223° |
| 2026-04-19 18:09 | 5.16062 | 100.43889 | 9409 ft | 292 kts | 223° |
| 2026-04-19 18:10 | 5.14556 | 100.42507 | 10128 ft | 296 kts | 223° |
| 2026-04-19 18:10 | 5.12978 | 100.41068 | 10397 ft | 318 kts | 223° |
| 2026-04-19 18:10 | 5.11277 | 100.39525 | 10560 ft | 341 kts | 223° |
| 2026-04-19 18:10 | 5.09463 | 100.37886 | 10760 ft | 360 kts | 222° |
| 2026-04-19 18:11 | 5.07574 | 100.36184 | 11203 ft | 369 kts | 222° |
| 2026-04-19 18:11 | 5.05659 | 100.34458 | 11806 ft | 372 kts | 222° |
| 2026-04-19 18:11 | 5.03753 | 100.32741 | 12447 ft | 374 kts | 222° |
| 2026-04-19 18:11 | 5.01810 | 100.30989 | 13058 ft | 378 kts | 222° |
| 2026-04-19 18:12 | 4.99819 | 100.29195 | 13628 ft | 382 kts | 222° |
| 2026-04-19 18:12 | 4.97862 | 100.27431 | 14141 ft | 385 kts | 222° |
| 2026-04-19 18:12 | 4.95866 | 100.25623 | 14672 ft | 388 kts | 224° |
| 2026-04-19 18:12 | 4.94254 | 100.23464 | 15145 ft | 390 kts | 245° |
| 2026-04-19 18:13 | 4.93484 | 100.20864 | 15684 ft | 391 kts | 263° |
| 2026-04-19 18:13 | 4.93556 | 100.18143 | 16202 ft | 392 kts | 278° |
| 2026-04-19 18:13 | 4.93984 | 100.15436 | 16707 ft | 395 kts | 280° |
| 2026-04-19 18:13 | 4.94453 | 100.12707 | 17175 ft | 399 kts | 280° |
| 2026-04-19 18:14 | 4.94918 | 100.09952 | 17662 ft | 402 kts | 280° |
| 2026-04-19 18:14 | 4.95365 | 100.07176 | 18145 ft | 405 kts | 279° |
| 2026-04-19 18:14 | 4.95800 | 100.04375 | 18551 ft | 408 kts | 279° |
| 2026-04-19 18:14 | 4.96229 | 100.01557 | 18983 ft | 410 kts | 278° |
| 2026-04-19 18:15 | 4.96183 | 99.98700 | 19371 ft | 414 kts | 259° |
| 2026-04-19 18:15 | 4.95205 | 99.95979 | 19795 ft | 417 kts | 242° |
| 2026-04-19 18:15 | 4.93460 | 99.93657 | 20187 ft | 421 kts | 225° |
| 2026-04-19 18:15 | 4.91326 | 99.91631 | 20586 ft | 424 kts | 223° |
| 2026-04-19 18:16 | 4.89137 | 99.89631 | 20940 ft | 427 kts | 223° |
| 2026-04-19 18:16 | 4.86925 | 99.87625 | 21301 ft | 430 kts | 223° |
| 2026-04-19 18:16 | 4.84707 | 99.85602 | 21673 ft | 432 kts | 223° |
| 2026-04-19 18:16 | 4.82487 | 99.83559 | 22040 ft | 435 kts | 224° |
| 2026-04-19 18:17 | 4.80263 | 99.81497 | 22398 ft | 437 kts | 224° |
| 2026-04-19 18:17 | 4.78030 | 99.79417 | 22747 ft | 439 kts | 224° |
| 2026-04-19 18:17 | 4.75789 | 99.77324 | 23091 ft | 442 kts | 224° |
| 2026-04-19 18:17 | 4.73533 | 99.75216 | 23407 ft | 444 kts | 224° |
| 2026-04-19 18:18 | 4.71271 | 99.73101 | 23688 ft | 446 kts | 224° |
| 2026-04-19 18:18 | 4.68996 | 99.70975 | 23962 ft | 448 kts | 224° |
| 2026-04-19 18:18 | 4.66710 | 99.68840 | 24239 ft | 450 kts | 224° |
| 2026-04-19 18:18 | 4.64416 | 99.66698 | 24502 ft | 452 kts | 224° |
| 2026-04-19 18:19 | 4.62115 | 99.64549 | 24754 ft | 454 kts | 224° |
| 2026-04-19 18:19 | 4.59798 | 99.62386 | 25010 ft | 456 kts | 224° |
| 2026-04-19 18:19 | 4.57474 | 99.60216 | 25268 ft | 458 kts | 224° |
| 2026-04-19 18:19 | 4.55142 | 99.58039 | 25521 ft | 459 kts | 224° |
| 2026-04-19 18:20 | 4.53592 | 99.56591 | 25695 ft | 460 kts | 224° |
| 2026-04-19 18:20 | 4.50451 | 99.53660 | 26009 ft | 463 kts | 224° |
| 2026-04-19 18:20 | 4.48092 | 99.51456 | 26249 ft | 465 kts | 224° |
| 2026-04-19 18:20 | 4.45723 | 99.49243 | 26485 ft | 466 kts | 224° |
| 2026-04-19 18:21 | 4.43347 | 99.47021 | 26711 ft | 468 kts | 224° |
| 2026-04-19 18:21 | 4.40963 | 99.44791 | 26939 ft | 470 kts | 223° |
| 2026-04-19 18:21 | 4.38571 | 99.42551 | 27156 ft | 471 kts | 223° |
| 2026-04-19 18:21 | 4.36174 | 99.40306 | 27381 ft | 473 kts | 224° |
| 2026-04-19 18:22 | 4.33768 | 99.38050 | 27569 ft | 475 kts | 224° |
| 2026-04-19 18:22 | 4.31346 | 99.35778 | 27709 ft | 478 kts | 224° |
| 2026-04-19 18:22 | 4.28913 | 99.33495 | 27891 ft | 480 kts | 224° |
| 2026-04-19 18:22 | 4.26505 | 99.31237 | 28099 ft | 481 kts | 224° |
| 2026-04-19 18:23 | 4.24063 | 99.28945 | 28311 ft | 482 kts | 224° |
| 2026-04-19 18:23 | 4.21615 | 99.26648 | 28502 ft | 483 kts | 224° |
| 2026-04-19 18:23 | 4.19160 | 99.24341 | 28687 ft | 485 kts | 224° |
| 2026-04-19 18:23 | 4.16698 | 99.22025 | 28856 ft | 486 kts | 223° |
| 2026-04-19 18:24 | 4.14232 | 99.19703 | 29061 ft | 487 kts | 223° |
| 2026-04-19 18:24 | 4.11768 | 99.17382 | 29345 ft | 485 kts | 223° |
| 2026-04-19 18:24 | 4.09314 | 99.15069 | 29667 ft | 484 kts | 224° |
| 2026-04-19 18:24 | 4.06871 | 99.12767 | 29998 ft | 482 kts | 224° |
| 2026-04-19 18:25 | 4.04431 | 99.10467 | 30235 ft | 481 kts | 224° |
| 2026-04-19 18:25 | 4.01998 | 99.08176 | 30468 ft | 480 kts | 224° |
| 2026-04-19 18:25 | 3.99564 | 99.05885 | 30752 ft | 479 kts | 224° |
| 2026-04-19 18:25 | 3.97141 | 99.03608 | 31074 ft | 476 kts | 224° |
| 2026-04-19 18:26 | 3.94735 | 99.01345 | 31405 ft | 473 kts | 224° |
| 2026-04-19 18:26 | 3.92342 | 98.99092 | 31713 ft | 471 kts | 224° |
| 2026-04-19 18:26 | 3.89956 | 98.96846 | 32015 ft | 470 kts | 224° |
| 2026-04-19 18:26 | 3.87577 | 98.94602 | 32291 ft | 469 kts | 224° |
| 2026-04-19 18:27 | 3.85209 | 98.92367 | 32576 ft | 468 kts | 224° |
| 2026-04-19 18:27 | 3.82844 | 98.90133 | 32880 ft | 466 kts | 224° |
| 2026-04-19 18:27 | 3.80491 | 98.87910 | 33179 ft | 465 kts | 224° |
| 2026-04-19 18:27 | 3.78146 | 98.85692 | 33473 ft | 464 kts | 224° |
| 2026-04-19 18:28 | 3.75806 | 98.83476 | 33775 ft | 462 kts | 224° |
| 2026-04-19 18:28 | 3.73474 | 98.81264 | 34031 ft | 461 kts | 224° |
| 2026-04-19 18:28 | 3.71143 | 98.79049 | 34231 ft | 462 kts | 224° |
| 2026-04-19 18:28 | 3.68812 | 98.76832 | 34400 ft | 463 kts | 224° |
| 2026-04-19 18:29 | 3.66482 | 98.74611 | 34639 ft | 463 kts | 224° |
| 2026-04-19 18:29 | 3.64155 | 98.72390 | 34886 ft | 462 kts | 224° |
| 2026-04-19 18:29 | 3.61833 | 98.70173 | 35120 ft | 461 kts | 224° |
| 2026-04-19 18:29 | 3.59510 | 98.67954 | 35318 ft | 461 kts | 224° |
| 2026-04-19 18:30 | 3.57191 | 98.65735 | 35533 ft | 461 kts | 224° |
| 2026-04-19 18:30 | 3.54870 | 98.63514 | 35749 ft | 461 kts | 224° |
| 2026-04-19 18:30 | 3.52555 | 98.61295 | 35883 ft | 461 kts | 224° |
| 2026-04-19 18:31 | 3.47901 | 98.56832 | 35892 ft | 464 kts | 224° |
| 2026-04-19 18:31 | 3.43250 | 98.52365 | 35901 ft | 463 kts | 224° |
| 2026-04-19 18:32 | 3.38603 | 98.47901 | 35917 ft | 463 kts | 224° |
| 2026-04-19 18:32 | 3.33959 | 98.43436 | 35927 ft | 463 kts | 224° |
| 2026-04-19 18:33 | 3.29313 | 98.38966 | 35934 ft | 463 kts | 224° |
| 2026-04-19 18:33 | 3.24665 | 98.34495 | 35941 ft | 464 kts | 224° |
| 2026-04-19 18:34 | 3.20802 | 98.30774 | 35947 ft | 464 kts | 224° |
| 2026-04-19 18:34 | 3.16155 | 98.26297 | 35946 ft | 464 kts | 224° |
| 2026-04-19 18:35 | 3.11503 | 98.21813 | 35953 ft | 464 kts | 224° |
| 2026-04-19 18:35 | 3.06857 | 98.17330 | 35952 ft | 464 kts | 224° |
| 2026-04-19 18:36 | 3.02210 | 98.12844 | 35944 ft | 464 kts | 224° |
| 2026-04-19 18:36 | 2.97563 | 98.08360 | 35941 ft | 464 kts | 224° |
| 2026-04-19 18:37 | 2.92921 | 98.03873 | 35932 ft | 464 kts | 224° |
| 2026-04-19 18:37 | 2.88280 | 97.99386 | 35925 ft | 464 kts | 224° |
| 2026-04-19 18:38 | 2.83638 | 97.94904 | 35916 ft | 464 kts | 224° |
| 2026-04-19 18:38 | 2.78995 | 97.90426 | 35913 ft | 464 kts | 224° |
| 2026-04-19 18:39 | 2.74349 | 97.85947 | 35906 ft | 464 kts | 224° |
| 2026-04-19 18:39 | 2.69732 | 97.81500 | 35900 ft | 464 kts | 224° |
| 2026-04-19 18:40 | 2.65046 | 97.76994 | 35892 ft | 464 kts | 224° |
| 2026-04-19 18:40 | 2.60388 | 97.72518 | 35887 ft | 465 kts | 224° |
| 2026-04-19 18:41 | 2.55720 | 97.68036 | 35890 ft | 465 kts | 224° |
| 2026-04-19 18:41 | 2.51051 | 97.63553 | 35882 ft | 466 kts | 224° |
| 2026-04-19 18:42 | 2.46406 | 97.59092 | 35884 ft | 466 kts | 224° |
| 2026-04-19 18:42 | 2.41726 | 97.54595 | 35885 ft | 467 kts | 224° |
| 2026-04-19 18:43 | 2.37041 | 97.50093 | 35886 ft | 467 kts | 224° |
| 2026-04-19 18:43 | 2.32352 | 97.45587 | 35885 ft | 468 kts | 224° |
| 2026-04-19 18:44 | 2.27654 | 97.41075 | 35883 ft | 468 kts | 224° |
| 2026-04-19 18:44 | 2.22956 | 97.36567 | 35881 ft | 468 kts | 224° |
| 2026-04-19 18:45 | 2.18255 | 97.32059 | 35884 ft | 469 kts | 224° |
| 2026-04-19 18:45 | 2.13546 | 97.27550 | 35880 ft | 469 kts | 224° |
| 2026-04-19 18:46 | 2.08832 | 97.23040 | 35883 ft | 469 kts | 224° |
| 2026-04-19 18:46 | 2.04118 | 97.18530 | 35881 ft | 469 kts | 224° |
| 2026-04-19 18:47 | 1.99403 | 97.14017 | 35885 ft | 469 kts | 224° |
| 2026-04-19 18:47 | 1.94686 | 97.09495 | 35881 ft | 470 kts | 224° |
| 2026-04-19 18:48 | 1.89976 | 97.04973 | 35882 ft | 470 kts | 224° |
| 2026-04-19 18:48 | 1.85263 | 97.00440 | 35879 ft | 470 kts | 224° |
| 2026-04-19 18:49 | 1.80550 | 96.95903 | 35879 ft | 470 kts | 224° |
| 2026-04-19 18:49 | 1.75871 | 96.91394 | 35880 ft | 471 kts | 224° |
| 2026-04-19 18:50 | 1.71156 | 96.86846 | 35879 ft | 471 kts | 224° |
| 2026-04-19 18:50 | 1.66439 | 96.82292 | 35879 ft | 472 kts | 224° |
| 2026-04-19 18:51 | 1.61721 | 96.77734 | 35881 ft | 472 kts | 224° |
| 2026-04-19 18:51 | 1.57000 | 96.73169 | 35879 ft | 472 kts | 224° |
| 2026-04-19 18:52 | 1.49912 | 96.66308 | 35877 ft | 473 kts | 224° |
| 2026-04-19 18:52 | 1.45191 | 96.61728 | 35879 ft | 473 kts | 224° |
| 2026-04-19 18:53 | 1.40471 | 96.57147 | 35877 ft | 473 kts | 224° |
| 2026-04-19 18:53 | 1.35754 | 96.52561 | 35877 ft | 473 kts | 224° |
| 2026-04-19 18:54 | 1.31043 | 96.47979 | 35876 ft | 472 kts | 224° |
| 2026-04-19 18:54 | 1.28986 | 96.45428 | 35864 ft | 473 kts | 240° |
| 2026-04-19 18:54 | 1.27717 | 96.42417 | 35880 ft | 471 kts | 257° |
| 2026-04-19 18:55 | 1.27331 | 96.39176 | 35876 ft | 470 kts | 273° |
| 2026-04-19 18:55 | 1.27749 | 96.35992 | 35892 ft | 469 kts | 283° |
| 2026-04-19 18:55 | 1.29190 | 96.30263 | 35867 ft | 467 kts | 286° |
| 2026-04-19 18:56 | 1.30212 | 96.27241 | 35854 ft | 466 kts | 299° |
| 2026-04-19 18:56 | 1.32170 | 96.24645 | 35891 ft | 462 kts | 319° |
| 2026-04-19 18:56 | 1.37350 | 96.20941 | 35881 ft | 463 kts | 327° |
| 2026-04-19 18:57 | 1.42462 | 96.16996 | 35873 ft | 466 kts | 319° |
| 2026-04-19 18:57 | 1.47065 | 96.12384 | 36017 ft | 471 kts | 313° |
| 2026-04-19 18:58 | 1.49237 | 96.09943 | 36263 ft | 469 kts | 311° |
| 2026-04-19 18:58 | 1.51359 | 96.07479 | 36550 ft | 467 kts | 311° |
| 2026-04-19 18:58 | 1.53458 | 96.05012 | 36827 ft | 465 kts | 311° |
| 2026-04-19 18:58 | 1.55544 | 96.02556 | 37055 ft | 464 kts | 311° |
| 2026-04-19 18:59 | 1.57635 | 96.00104 | 37230 ft | 464 kts | 311° |
| 2026-04-19 18:59 | 1.59736 | 95.97651 | 37408 ft | 464 kts | 311° |
| 2026-04-19 18:59 | 1.61838 | 95.95206 | 37605 ft | 463 kts | 311° |
| 2026-04-19 18:59 | 1.63937 | 95.92770 | 37817 ft | 462 kts | 311° |
| 2026-04-19 19:00 | 1.68155 | 95.87885 | 37887 ft | 466 kts | 311° |
| 2026-04-19 19:00 | 1.72378 | 95.82997 | 37873 ft | 463 kts | 311° |
| 2026-04-19 19:01 | 1.76569 | 95.78144 | 37872 ft | 460 kts | 311° |
| 2026-04-19 19:01 | 1.80735 | 95.73318 | 37878 ft | 457 kts | 311° |
| 2026-04-19 19:02 | 1.84878 | 95.68519 | 37880 ft | 455 kts | 311° |
| 2026-04-19 19:02 | 1.89015 | 95.63726 | 37894 ft | 455 kts | 311° |
| 2026-04-19 19:03 | 1.93145 | 95.58941 | 37885 ft | 455 kts | 311° |
| 2026-04-19 19:03 | 1.97284 | 95.54145 | 37881 ft | 456 kts | 311° |
| 2026-04-19 19:04 | 2.01436 | 95.49335 | 37889 ft | 457 kts | 311° |
| 2026-04-19 19:04 | 2.05598 | 95.44511 | 37890 ft | 459 kts | 311° |
| 2026-04-19 19:05 | 2.09777 | 95.39668 | 37889 ft | 461 kts | 311° |
| 2026-04-19 19:05 | 2.13966 | 95.34812 | 37885 ft | 462 kts | 311° |
| 2026-04-19 19:06 | 2.18170 | 95.29939 | 37877 ft | 463 kts | 311° |
| 2026-04-19 19:06 | 2.22379 | 95.25059 | 37881 ft | 464 kts | 311° |
| 2026-04-19 19:07 | 2.26565 | 95.20206 | 37890 ft | 464 kts | 311° |
| 2026-04-19 19:07 | 2.30778 | 95.15320 | 37879 ft | 464 kts | 311° |
| 2026-04-19 19:08 | 2.34991 | 95.10436 | 37884 ft | 464 kts | 311° |
| 2026-04-19 19:08 | 2.39201 | 95.05552 | 37878 ft | 463 kts | 311° |
| 2026-04-19 19:09 | 2.43402 | 95.00680 | 37883 ft | 462 kts | 311° |
| 2026-04-19 19:09 | 2.47596 | 94.95815 | 37887 ft | 461 kts | 311° |
| 2026-04-19 19:10 | 2.51784 | 94.90957 | 37884 ft | 461 kts | 311° |
| 2026-04-19 19:10 | 2.55962 | 94.86109 | 37889 ft | 460 kts | 311° |
| 2026-04-19 19:11 | 2.60134 | 94.81267 | 37886 ft | 459 kts | 311° |
| 2026-04-19 19:11 | 2.64299 | 94.76434 | 37880 ft | 458 kts | 311° |
| 2026-04-19 19:12 | 2.68457 | 94.71608 | 37880 ft | 458 kts | 311° |
| 2026-04-19 19:12 | 2.72611 | 94.66787 | 37880 ft | 457 kts | 311° |
| 2026-04-19 19:13 | 2.76757 | 94.61973 | 37891 ft | 456 kts | 311° |
| 2026-04-19 19:13 | 2.80897 | 94.57167 | 37881 ft | 456 kts | 310° |
| 2026-04-19 19:14 | 2.85036 | 94.52361 | 37893 ft | 456 kts | 310° |
| 2026-04-19 19:14 | 2.89171 | 94.47558 | 37882 ft | 456 kts | 310° |
| 2026-04-19 19:15 | 2.93309 | 94.42752 | 37877 ft | 455 kts | 310° |
| 2026-04-19 19:15 | 2.97442 | 94.37952 | 37876 ft | 455 kts | 310° |
| 2026-04-19 19:16 | 3.01573 | 94.33153 | 37890 ft | 455 kts | 310° |
| 2026-04-19 19:16 | 3.05705 | 94.28351 | 37881 ft | 455 kts | 310° |
| 2026-04-19 19:17 | 3.09833 | 94.23554 | 37878 ft | 455 kts | 310° |
| 2026-04-19 19:17 | 3.13964 | 94.18753 | 37877 ft | 455 kts | 310° |
| 2026-04-19 19:18 | 3.18095 | 94.13951 | 37882 ft | 455 kts | 310° |
| 2026-04-19 19:18 | 3.22231 | 94.09144 | 37884 ft | 456 kts | 311° |
| 2026-04-19 19:19 | 3.26368 | 94.04333 | 37893 ft | 456 kts | 311° |
| 2026-04-19 19:20 | 3.32582 | 93.97108 | 37879 ft | 457 kts | 311° |
| 2026-04-19 19:20 | 3.36025 | 93.93103 | 37888 ft | 457 kts | 311° |
| 2026-04-19 19:21 | 3.40173 | 93.88278 | 37890 ft | 457 kts | 311° |
| 2026-04-19 19:21 | 3.44321 | 93.83453 | 37885 ft | 457 kts | 311° |
| 2026-04-19 19:22 | 3.48470 | 93.78626 | 37878 ft | 457 kts | 311° |
| 2026-04-19 19:22 | 3.52617 | 93.73800 | 37884 ft | 457 kts | 311° |
| 2026-04-19 19:23 | 3.56759 | 93.68978 | 37882 ft | 457 kts | 310° |
| 2026-04-19 19:23 | 3.60905 | 93.64152 | 37882 ft | 457 kts | 310° |
| 2026-04-19 19:24 | 3.65050 | 93.59327 | 37881 ft | 457 kts | 310° |
| 2026-04-19 19:24 | 3.69166 | 93.54534 | 37884 ft | 457 kts | 311° |
| 2026-04-19 19:25 | 3.73314 | 93.49703 | 37886 ft | 458 kts | 311° |
| 2026-04-19 19:25 | 3.77466 | 93.44867 | 37882 ft | 458 kts | 311° |
| 2026-04-19 19:26 | 3.81627 | 93.40019 | 37884 ft | 459 kts | 311° |
| 2026-04-19 19:26 | 3.85794 | 93.35164 | 37887 ft | 460 kts | 311° |
| 2026-04-19 19:27 | 3.89966 | 93.30302 | 37894 ft | 461 kts | 311° |
| 2026-04-19 19:27 | 3.94146 | 93.25430 | 37892 ft | 461 kts | 310° |
| 2026-04-19 19:28 | 3.98331 | 93.20552 | 37894 ft | 462 kts | 310° |
| 2026-04-19 19:28 | 4.02524 | 93.15663 | 37888 ft | 463 kts | 310° |
| 2026-04-19 19:29 | 4.06716 | 93.10774 | 37896 ft | 463 kts | 310° |
| 2026-04-19 19:29 | 4.10912 | 93.05880 | 37882 ft | 463 kts | 310° |
| 2026-04-19 19:30 | 4.15106 | 93.00987 | 37882 ft | 463 kts | 310° |
| 2026-04-19 19:30 | 4.19303 | 92.96091 | 37892 ft | 463 kts | 310° |
| 2026-04-19 19:31 | 4.23502 | 92.91191 | 37883 ft | 463 kts | 310° |
| 2026-04-19 19:31 | 4.27700 | 92.86291 | 37884 ft | 463 kts | 310° |
| 2026-04-19 19:32 | 4.31869 | 92.81424 | 37894 ft | 463 kts | 310° |
| 2026-04-19 19:32 | 4.36067 | 92.76522 | 37893 ft | 463 kts | 310° |
| 2026-04-19 19:33 | 4.40263 | 92.71622 | 37896 ft | 463 kts | 310° |
| 2026-04-19 19:33 | 4.44452 | 92.66729 | 37882 ft | 463 kts | 310° |
| 2026-04-19 19:34 | 4.48644 | 92.61832 | 37893 ft | 463 kts | 310° |
| 2026-04-19 19:34 | 4.52834 | 92.56935 | 37883 ft | 463 kts | 310° |
| 2026-04-19 19:35 | 4.57023 | 92.52039 | 37894 ft | 463 kts | 310° |
| 2026-04-19 19:35 | 4.61213 | 92.47141 | 37894 ft | 463 kts | 311° |
| 2026-04-19 19:36 | 4.65404 | 92.42242 | 37875 ft | 463 kts | 311° |
| 2026-04-19 19:36 | 4.69599 | 92.37337 | 37894 ft | 463 kts | 310° |
| 2026-04-19 19:37 | 4.73789 | 92.32435 | 37894 ft | 463 kts | 310° |
| 2026-04-19 19:37 | 4.77984 | 92.27527 | 37894 ft | 463 kts | 310° |
| 2026-04-19 19:38 | 4.82179 | 92.22619 | 37881 ft | 463 kts | 310° |
| 2026-04-19 19:38 | 4.86372 | 92.17712 | 37877 ft | 463 kts | 310° |
| 2026-04-19 19:39 | 4.90562 | 92.12806 | 37881 ft | 463 kts | 310° |
| 2026-04-19 19:39 | 4.94748 | 92.07905 | 37876 ft | 462 kts | 310° |
| 2026-04-19 19:40 | 4.98930 | 92.03007 | 37879 ft | 462 kts | 310° |
| 2026-04-19 19:40 | 5.03108 | 91.98114 | 37885 ft | 461 kts | 310° |
| 2026-04-19 19:41 | 5.07281 | 91.93225 | 37885 ft | 461 kts | 310° |
| 2026-04-19 19:41 | 5.11450 | 91.88339 | 37875 ft | 461 kts | 310° |
| 2026-04-19 19:42 | 5.15618 | 91.83454 | 37885 ft | 461 kts | 310° |
| 2026-04-19 19:42 | 5.19787 | 91.78565 | 37874 ft | 461 kts | 310° |
| 2026-04-19 19:43 | 5.23931 | 91.73706 | 37875 ft | 461 kts | 310° |
| 2026-04-19 19:43 | 5.28106 | 91.68809 | 37875 ft | 462 kts | 310° |
| 2026-04-19 19:44 | 5.32282 | 91.63910 | 37880 ft | 462 kts | 310° |
| 2026-04-19 19:44 | 5.36464 | 91.59003 | 37879 ft | 463 kts | 310° |
| 2026-04-19 19:45 | 5.40651 | 91.54088 | 37878 ft | 463 kts | 311° |
| 2026-04-19 19:45 | 5.44840 | 91.49171 | 37884 ft | 464 kts | 311° |
| 2026-04-19 19:46 | 5.49029 | 91.44252 | 37870 ft | 464 kts | 311° |
| 2026-04-19 19:46 | 5.53222 | 91.39327 | 37876 ft | 464 kts | 311° |
| 2026-04-19 19:47 | 5.57414 | 91.34402 | 37871 ft | 464 kts | 311° |
| 2026-04-19 19:47 | 5.61601 | 91.29481 | 37880 ft | 464 kts | 311° |
| 2026-04-19 19:48 | 5.65766 | 91.24586 | 37894 ft | 464 kts | 311° |
| 2026-04-19 19:48 | 5.69953 | 91.19663 | 37874 ft | 464 kts | 311° |
| 2026-04-19 19:49 | 5.74167 | 91.14708 | 37871 ft | 464 kts | 311° |
| 2026-04-19 19:49 | 5.78323 | 91.09819 | 37887 ft | 463 kts | 311° |
| 2026-04-19 19:50 | 5.82511 | 91.04892 | 37870 ft | 463 kts | 311° |
| 2026-04-19 19:50 | 5.86692 | 90.99971 | 37876 ft | 463 kts | 311° |
| 2026-04-19 19:51 | 5.90876 | 90.95046 | 37872 ft | 463 kts | 311° |
| 2026-04-19 19:51 | 5.95056 | 90.90125 | 37882 ft | 463 kts | 311° |
| 2026-04-19 19:52 | 5.99238 | 90.85199 | 37867 ft | 463 kts | 311° |
| 2026-04-19 19:52 | 6.03416 | 90.80277 | 37875 ft | 463 kts | 311° |
| 2026-04-19 19:53 | 6.07598 | 90.75349 | 37867 ft | 463 kts | 311° |
| 2026-04-19 19:53 | 6.11779 | 90.70422 | 37875 ft | 463 kts | 311° |
| 2026-04-19 19:54 | 6.15957 | 90.65495 | 37884 ft | 463 kts | 310° |
| 2026-04-19 19:54 | 6.20141 | 90.60561 | 37881 ft | 463 kts | 310° |
| 2026-04-19 19:55 | 6.24320 | 90.55632 | 37874 ft | 463 kts | 310° |
| 2026-04-19 19:55 | 6.28500 | 90.50700 | 37876 ft | 464 kts | 310° |
| 2026-04-19 19:56 | 6.32681 | 90.45764 | 37865 ft | 464 kts | 310° |
| 2026-04-19 19:56 | 6.36863 | 90.40828 | 37866 ft | 464 kts | 310° |
| 2026-04-19 19:57 | 6.41044 | 90.35890 | 37870 ft | 464 kts | 310° |
| 2026-04-19 19:57 | 6.45197 | 90.30984 | 37878 ft | 464 kts | 310° |
| 2026-04-19 19:58 | 6.49381 | 90.26042 | 37877 ft | 464 kts | 310° |
| 2026-04-19 19:58 | 6.53561 | 90.21101 | 37876 ft | 464 kts | 310° |
| 2026-04-19 19:59 | 6.57745 | 90.16155 | 37874 ft | 464 kts | 310° |
| 2026-04-19 19:59 | 6.61928 | 90.11207 | 37881 ft | 464 kts | 310° |
| 2026-04-19 20:00 | 6.66112 | 90.06258 | 37874 ft | 464 kts | 310° |
| 2026-04-19 20:00 | 6.70298 | 90.01305 | 37863 ft | 465 kts | 310° |
| 2026-04-19 20:01 | 6.74488 | 89.96347 | 37876 ft | 465 kts | 310° |
| 2026-04-19 20:01 | 6.78677 | 89.91386 | 37865 ft | 465 kts | 310° |
| 2026-04-19 20:02 | 6.82872 | 89.86418 | 37871 ft | 466 kts | 310° |
| 2026-04-19 20:02 | 6.87065 | 89.81452 | 37866 ft | 466 kts | 310° |
| 2026-04-19 20:03 | 6.91260 | 89.76481 | 37870 ft | 466 kts | 310° |
| 2026-04-19 20:03 | 6.95454 | 89.71510 | 37876 ft | 466 kts | 310° |
| 2026-04-19 20:04 | 6.99646 | 89.66539 | 37867 ft | 465 kts | 310° |
| 2026-04-19 20:04 | 7.03832 | 89.61574 | 37868 ft | 465 kts | 310° |
| 2026-04-19 20:05 | 7.08017 | 89.56609 | 37875 ft | 465 kts | 310° |
| 2026-04-19 20:05 | 7.12197 | 89.51649 | 37857 ft | 465 kts | 310° |
| 2026-04-19 20:06 | 7.16376 | 89.46687 | 37862 ft | 464 kts | 310° |
| 2026-04-19 20:06 | 7.20548 | 89.41732 | 37860 ft | 464 kts | 310° |
| 2026-04-19 20:07 | 7.24718 | 89.36779 | 37869 ft | 463 kts | 310° |
| 2026-04-19 20:07 | 7.28885 | 89.31828 | 37865 ft | 463 kts | 310° |
| 2026-04-19 20:08 | 7.33050 | 89.26878 | 37860 ft | 463 kts | 310° |
| 2026-04-19 20:08 | 7.37209 | 89.21932 | 37867 ft | 463 kts | 309° |
| 2026-04-19 20:09 | 7.40665 | 89.17822 | 37872 ft | 463 kts | 309° |
| 2026-04-19 20:09 | 7.44824 | 89.12873 | 37861 ft | 463 kts | 309° |
| 2026-04-19 20:10 | 7.48981 | 89.07926 | 37862 ft | 463 kts | 309° |
| 2026-04-19 20:10 | 7.53141 | 89.02973 | 37865 ft | 463 kts | 309° |
| 2026-04-19 20:11 | 7.57298 | 88.98023 | 37874 ft | 463 kts | 309° |
| 2026-04-19 20:11 | 7.61461 | 88.93064 | 37864 ft | 463 kts | 309° |
| 2026-04-19 20:12 | 7.65620 | 88.88108 | 37872 ft | 463 kts | 309° |
| 2026-04-19 20:12 | 7.69782 | 88.83147 | 37875 ft | 463 kts | 309° |
| 2026-04-19 20:13 | 7.73944 | 88.78184 | 37861 ft | 464 kts | 309° |
| 2026-04-19 20:13 | 7.78107 | 88.73219 | 37871 ft | 463 kts | 309° |
| 2026-04-19 20:14 | 7.82268 | 88.68253 | 37860 ft | 463 kts | 309° |
| 2026-04-19 20:14 | 7.86426 | 88.63291 | 37863 ft | 463 kts | 309° |
| 2026-04-19 20:15 | 7.90583 | 88.58326 | 37879 ft | 463 kts | 309° |
| 2026-04-19 20:15 | 7.94739 | 88.53363 | 37857 ft | 463 kts | 309° |
| 2026-04-19 20:16 | 7.98890 | 88.48403 | 37864 ft | 463 kts | 309° |
| 2026-04-19 20:16 | 8.03014 | 88.43473 | 37868 ft | 463 kts | 309° |
| 2026-04-19 20:17 | 8.07192 | 88.38478 | 37869 ft | 462 kts | 309° |
| 2026-04-19 20:17 | 8.11311 | 88.33551 | 37869 ft | 462 kts | 309° |
| 2026-04-19 20:18 | 8.15457 | 88.28590 | 37860 ft | 462 kts | 309° |
| 2026-04-19 20:18 | 8.19606 | 88.23624 | 37857 ft | 462 kts | 309° |
| 2026-04-19 20:19 | 8.23751 | 88.18661 | 37866 ft | 462 kts | 309° |
| 2026-04-19 20:19 | 8.27898 | 88.13694 | 37871 ft | 462 kts | 309° |
| 2026-04-19 20:20 | 8.32042 | 88.08728 | 37858 ft | 462 kts | 309° |
| 2026-04-19 20:20 | 8.36182 | 88.03766 | 37858 ft | 462 kts | 309° |
| 2026-04-19 20:21 | 8.40324 | 87.98800 | 37870 ft | 462 kts | 309° |
| 2026-04-19 20:21 | 8.44459 | 87.93839 | 37862 ft | 461 kts | 309° |
| 2026-04-19 20:22 | 8.48587 | 87.88886 | 37861 ft | 461 kts | 309° |
| 2026-04-19 20:22 | 8.52711 | 87.83935 | 37860 ft | 460 kts | 309° |
| 2026-04-19 20:23 | 8.56831 | 87.78987 | 37858 ft | 460 kts | 309° |
| 2026-04-19 20:23 | 8.60950 | 87.74039 | 37863 ft | 460 kts | 309° |
| 2026-04-19 20:24 | 8.65064 | 87.69094 | 37859 ft | 460 kts | 309° |
| 2026-04-19 20:24 | 8.69181 | 87.64146 | 37858 ft | 460 kts | 309° |
| 2026-04-19 20:25 | 8.73303 | 87.59189 | 37858 ft | 461 kts | 309° |
| 2026-04-19 20:25 | 8.77430 | 87.54222 | 37863 ft | 462 kts | 309° |
| 2026-04-19 20:26 | 8.81567 | 87.49244 | 37857 ft | 463 kts | 309° |
| 2026-04-19 20:26 | 8.85717 | 87.44247 | 37864 ft | 464 kts | 309° |
| 2026-04-19 20:27 | 8.89874 | 87.39241 | 37860 ft | 466 kts | 309° |
| 2026-04-19 20:27 | 8.94043 | 87.34216 | 37862 ft | 467 kts | 309° |
| 2026-04-19 20:28 | 8.98219 | 87.29183 | 37862 ft | 467 kts | 309° |
| 2026-04-19 20:28 | 9.02398 | 87.24144 | 37860 ft | 468 kts | 309° |
| 2026-04-19 20:29 | 9.06554 | 87.19130 | 37857 ft | 468 kts | 309° |
| 2026-04-19 20:29 | 9.10736 | 87.14082 | 37859 ft | 468 kts | 309° |
| 2026-04-19 20:30 | 9.17002 | 87.06517 | 37862 ft | 467 kts | 309° |
| 2026-04-19 20:30 | 9.21171 | 87.01481 | 37861 ft | 466 kts | 309° |
| 2026-04-19 20:31 | 9.25331 | 86.96453 | 37859 ft | 465 kts | 309° |
| 2026-04-19 20:31 | 9.29483 | 86.91433 | 37859 ft | 465 kts | 309° |
| 2026-04-19 20:32 | 9.33626 | 86.86422 | 37862 ft | 464 kts | 309° |
| 2026-04-19 20:32 | 9.37764 | 86.81415 | 37855 ft | 463 kts | 309° |
| 2026-04-19 20:33 | 9.41894 | 86.76416 | 37859 ft | 463 kts | 309° |
| 2026-04-19 20:33 | 9.46020 | 86.71419 | 37859 ft | 462 kts | 309° |
| 2026-04-19 20:34 | 9.50143 | 86.66424 | 37855 ft | 462 kts | 309° |
| 2026-04-19 20:34 | 9.54264 | 86.61430 | 37854 ft | 462 kts | 309° |
| 2026-04-19 20:35 | 9.58386 | 86.56432 | 37858 ft | 462 kts | 309° |
| 2026-04-19 20:35 | 9.62511 | 86.51428 | 37856 ft | 463 kts | 309° |
| 2026-04-19 20:36 | 9.66638 | 86.46419 | 37856 ft | 463 kts | 309° |
| 2026-04-19 20:36 | 9.69372 | 86.43100 | 37855 ft | 463 kts | 309° |
| 2026-04-19 20:37 | 9.74900 | 86.36387 | 37853 ft | 464 kts | 309° |
| 2026-04-19 20:37 | 9.79036 | 86.31361 | 37852 ft | 464 kts | 309° |
| 2026-04-19 20:38 | 9.83176 | 86.26329 | 37851 ft | 465 kts | 309° |
| 2026-04-19 20:38 | 9.87321 | 86.21288 | 37853 ft | 465 kts | 309° |
| 2026-04-19 20:39 | 9.91463 | 86.16249 | 37849 ft | 465 kts | 309° |
| 2026-04-19 20:39 | 9.95611 | 86.11200 | 37852 ft | 466 kts | 309° |
| 2026-04-19 20:40 | 9.99728 | 86.06187 | 37850 ft | 466 kts | 309° |
| 2026-04-19 20:40 | 10.03868 | 86.01143 | 37857 ft | 465 kts | 309° |
| 2026-04-19 20:41 | 10.08008 | 85.96097 | 37850 ft | 465 kts | 308° |
| 2026-04-19 20:41 | 10.12144 | 85.91054 | 37850 ft | 465 kts | 308° |
| 2026-04-19 20:42 | 10.16275 | 85.86015 | 37852 ft | 464 kts | 308° |
| 2026-04-19 20:42 | 10.20402 | 85.80979 | 37851 ft | 463 kts | 308° |
| 2026-04-19 20:43 | 10.24522 | 85.75949 | 37850 ft | 463 kts | 308° |
| 2026-04-19 20:43 | 10.28636 | 85.70924 | 37850 ft | 462 kts | 308° |
| 2026-04-19 20:44 | 10.32743 | 85.65904 | 37850 ft | 462 kts | 308° |
| 2026-04-19 20:44 | 10.36850 | 85.60884 | 37849 ft | 462 kts | 308° |
| 2026-04-19 20:45 | 10.40951 | 85.55867 | 37848 ft | 461 kts | 308° |
| 2026-04-19 20:45 | 10.45049 | 85.50852 | 37851 ft | 461 kts | 308° |
| 2026-04-19 20:46 | 10.49118 | 85.45872 | 37849 ft | 461 kts | 308° |
| 2026-04-19 20:46 | 10.53237 | 85.40826 | 37850 ft | 461 kts | 308° |
| 2026-04-19 20:47 | 10.57302 | 85.35846 | 37849 ft | 461 kts | 308° |
| 2026-04-19 20:47 | 10.61394 | 85.30829 | 37849 ft | 461 kts | 308° |
| 2026-04-19 20:48 | 10.65485 | 85.25812 | 37848 ft | 461 kts | 308° |
| 2026-04-19 20:48 | 10.69578 | 85.20789 | 37850 ft | 461 kts | 308° |
| 2026-04-19 20:49 | 10.73669 | 85.15767 | 37849 ft | 461 kts | 308° |
| 2026-04-19 20:49 | 10.77763 | 85.10738 | 37848 ft | 461 kts | 308° |
| 2026-04-19 20:50 | 10.81858 | 85.05707 | 37845 ft | 462 kts | 308° |
| 2026-04-19 20:50 | 10.85951 | 85.00676 | 37845 ft | 462 kts | 308° |
| 2026-04-19 20:51 | 10.90049 | 84.95635 | 37847 ft | 462 kts | 308° |
| 2026-04-19 20:51 | 10.94143 | 84.90596 | 37846 ft | 462 kts | 308° |
| 2026-04-19 20:52 | 10.98238 | 84.85556 | 37845 ft | 462 kts | 308° |
| 2026-04-19 20:52 | 11.02333 | 84.80512 | 37848 ft | 462 kts | 308° |
| 2026-04-19 20:53 | 11.06423 | 84.75471 | 37848 ft | 462 kts | 308° |
| 2026-04-19 20:53 | 11.10510 | 84.70432 | 37847 ft | 461 kts | 308° |
| 2026-04-19 20:54 | 11.14597 | 84.65392 | 37843 ft | 461 kts | 308° |
| 2026-04-19 20:54 | 11.18676 | 84.60357 | 37849 ft | 461 kts | 308° |
| 2026-04-19 20:55 | 11.22752 | 84.55326 | 37848 ft | 460 kts | 307° |
| 2026-04-19 20:55 | 11.26136 | 84.51145 | 37843 ft | 460 kts | 307° |
| 2026-04-19 20:56 | 11.30202 | 84.46121 | 37847 ft | 459 kts | 307° |
| 2026-04-19 20:56 | 11.34260 | 84.41102 | 37847 ft | 459 kts | 307° |
| 2026-04-19 20:57 | 11.38312 | 84.36091 | 37845 ft | 458 kts | 307° |
| 2026-04-19 20:57 | 11.42357 | 84.31084 | 37847 ft | 457 kts | 307° |
| 2026-04-19 20:58 | 11.46394 | 84.26086 | 37844 ft | 456 kts | 307° |
| 2026-04-19 20:58 | 11.50419 | 84.21099 | 37842 ft | 455 kts | 307° |
| 2026-04-19 20:59 | 11.54437 | 84.16119 | 37844 ft | 454 kts | 306° |
| 2026-04-19 20:59 | 11.58444 | 84.11150 | 37843 ft | 453 kts | 306° |
| 2026-04-19 21:00 | 11.62415 | 84.06223 | 37843 ft | 452 kts | 306° |
| 2026-04-19 21:00 | 11.66403 | 84.01273 | 37842 ft | 451 kts | 306° |
| 2026-04-19 21:01 | 11.70384 | 83.96328 | 37845 ft | 451 kts | 306° |
| 2026-04-19 21:01 | 11.74360 | 83.91388 | 37845 ft | 450 kts | 306° |
| 2026-04-19 21:02 | 11.78333 | 83.86449 | 37844 ft | 450 kts | 306° |
| 2026-04-19 21:02 | 11.82302 | 83.81512 | 37843 ft | 450 kts | 306° |
| 2026-04-19 21:03 | 11.86271 | 83.76573 | 37841 ft | 450 kts | 305° |
| 2026-04-19 21:03 | 11.90238 | 83.71633 | 37836 ft | 450 kts | 305° |
| 2026-04-19 21:04 | 11.94207 | 83.66689 | 37842 ft | 450 kts | 305° |
| 2026-04-19 21:04 | 11.98176 | 83.61742 | 37848 ft | 450 kts | 305° |
| 2026-04-19 21:05 | 12.02148 | 83.56789 | 37841 ft | 451 kts | 305° |
| 2026-04-19 21:05 | 12.06124 | 83.51829 | 37844 ft | 451 kts | 305° |
| 2026-04-19 21:06 | 12.10099 | 83.46867 | 37841 ft | 451 kts | 305° |
| 2026-04-19 21:06 | 12.14072 | 83.41904 | 37841 ft | 451 kts | 305° |
| 2026-04-19 21:07 | 12.18044 | 83.36942 | 37837 ft | 451 kts | 305° |
| 2026-04-19 21:07 | 12.22016 | 83.31975 | 37838 ft | 451 kts | 305° |
| 2026-04-19 21:08 | 12.25985 | 83.27011 | 37835 ft | 451 kts | 305° |
| 2026-04-19 21:08 | 12.29954 | 83.22044 | 37837 ft | 451 kts | 305° |
| 2026-04-19 21:09 | 12.33917 | 83.17081 | 37837 ft | 450 kts | 304° |
| 2026-04-19 21:09 | 12.37877 | 83.12120 | 37837 ft | 450 kts | 304° |
| 2026-04-19 21:10 | 12.41836 | 83.07157 | 37839 ft | 450 kts | 304° |
| 2026-04-19 21:10 | 12.45790 | 83.02198 | 37834 ft | 450 kts | 304° |
| 2026-04-19 21:11 | 12.49744 | 82.97236 | 37836 ft | 450 kts | 304° |
| 2026-04-19 21:11 | 12.53668 | 82.92309 | 37835 ft | 450 kts | 304° |
| 2026-04-19 21:12 | 12.57618 | 82.87347 | 37835 ft | 449 kts | 304° |
| 2026-04-19 21:12 | 12.61566 | 82.82385 | 37835 ft | 450 kts | 304° |
| 2026-04-19 21:13 | 12.65516 | 82.77418 | 37837 ft | 450 kts | 304° |
| 2026-04-19 21:13 | 12.69462 | 82.72452 | 37835 ft | 450 kts | 304° |
| 2026-04-19 21:14 | 12.73411 | 82.67480 | 37834 ft | 450 kts | 304° |
| 2026-04-19 21:14 | 12.77359 | 82.62508 | 37837 ft | 450 kts | 304° |
| 2026-04-19 21:15 | 12.81310 | 82.57528 | 37832 ft | 450 kts | 304° |
| 2026-04-19 21:15 | 12.85258 | 82.52549 | 37831 ft | 450 kts | 304° |
| 2026-04-19 21:16 | 12.89208 | 82.47565 | 37831 ft | 450 kts | 304° |
| 2026-04-19 21:16 | 12.93156 | 82.42581 | 37831 ft | 451 kts | 304° |
| 2026-04-19 21:17 | 12.97107 | 82.37592 | 37828 ft | 451 kts | 304° |
| 2026-04-19 21:17 | 13.01056 | 82.32600 | 37826 ft | 451 kts | 304° |
| 2026-04-19 21:18 | 13.05001 | 82.27613 | 37827 ft | 450 kts | 304° |
| 2026-04-19 21:18 | 13.08947 | 82.22619 | 37830 ft | 450 kts | 304° |
| 2026-04-19 21:19 | 13.12889 | 82.17629 | 37829 ft | 450 kts | 304° |
| 2026-04-19 21:19 | 13.16831 | 82.12636 | 37823 ft | 450 kts | 304° |
| 2026-04-19 21:20 | 13.20767 | 82.07648 | 37823 ft | 450 kts | 304° |
| 2026-04-19 21:20 | 13.24700 | 82.02660 | 37824 ft | 449 kts | 304° |
| 2026-04-19 21:21 | 13.28605 | 81.97706 | 37825 ft | 449 kts | 304° |
| 2026-04-19 21:21 | 13.32536 | 81.92715 | 37821 ft | 449 kts | 304° |
| 2026-04-19 21:22 | 13.36462 | 81.87727 | 37823 ft | 449 kts | 304° |
| 2026-04-19 21:22 | 13.40386 | 81.82739 | 37824 ft | 449 kts | 304° |
| 2026-04-19 21:23 | 13.44312 | 81.77746 | 37821 ft | 449 kts | 304° |
| 2026-04-19 21:23 | 13.48239 | 81.72750 | 37825 ft | 449 kts | 304° |
| 2026-04-19 21:24 | 13.52164 | 81.67751 | 37820 ft | 450 kts | 304° |
| 2026-04-19 21:24 | 13.56091 | 81.62748 | 37820 ft | 450 kts | 304° |
| 2026-04-19 21:25 | 13.60016 | 81.57744 | 37817 ft | 450 kts | 304° |
| 2026-04-19 21:25 | 13.63943 | 81.52735 | 37815 ft | 450 kts | 304° |
| 2026-04-19 21:26 | 13.67870 | 81.47723 | 37817 ft | 450 kts | 304° |
| 2026-04-19 21:26 | 13.71373 | 81.42459 | 37816 ft | 442 kts | 292° |
| 2026-04-19 21:27 | 13.74105 | 81.36804 | 37814 ft | 441 kts | 291° |
| 2026-04-19 21:27 | 13.76805 | 81.31130 | 37815 ft | 442 kts | 291° |
| 2026-04-19 21:28 | 13.79539 | 81.25472 | 37815 ft | 442 kts | 292° |
| 2026-04-19 21:28 | 13.82291 | 81.19822 | 37813 ft | 442 kts | 292° |
| 2026-04-19 21:29 | 13.85030 | 81.14207 | 37812 ft | 442 kts | 292° |
| 2026-04-19 21:29 | 13.87782 | 81.08554 | 37812 ft | 442 kts | 292° |
| 2026-04-19 21:30 | 13.90533 | 81.02900 | 37812 ft | 442 kts | 292° |
| 2026-04-19 21:30 | 13.93281 | 80.97249 | 37810 ft | 442 kts | 292° |
| 2026-04-19 21:31 | 13.96026 | 80.91596 | 37806 ft | 441 kts | 292° |
| 2026-04-19 21:31 | 13.98770 | 80.85945 | 37805 ft | 441 kts | 292° |
| 2026-04-19 21:32 | 14.01535 | 80.80301 | 37806 ft | 442 kts | 293° |
| 2026-04-19 21:32 | 14.04373 | 80.74695 | 37804 ft | 442 kts | 294° |
| 2026-04-19 21:33 | 14.07223 | 80.69091 | 37805 ft | 441 kts | 294° |
| 2026-04-19 21:33 | 14.10062 | 80.63486 | 37802 ft | 441 kts | 293° |
| 2026-04-19 21:34 | 14.12892 | 80.57877 | 37800 ft | 441 kts | 293° |
| 2026-04-19 21:34 | 14.15720 | 80.52266 | 37804 ft | 441 kts | 293° |
| 2026-04-19 21:35 | 14.18542 | 80.46661 | 37805 ft | 441 kts | 293° |
| 2026-04-19 21:35 | 14.21364 | 80.41053 | 37803 ft | 440 kts | 293° |
| 2026-04-19 21:36 | 14.24181 | 80.35450 | 37800 ft | 440 kts | 293° |
| 2026-04-19 21:36 | 14.26996 | 80.29848 | 37804 ft | 440 kts | 293° |
| 2026-04-19 21:37 | 14.29808 | 80.24248 | 37798 ft | 440 kts | 293° |
| 2026-04-19 21:37 | 14.32619 | 80.18647 | 37800 ft | 440 kts | 293° |
| 2026-04-19 21:38 | 14.35409 | 80.13083 | 37800 ft | 440 kts | 293° |
| 2026-04-19 21:38 | 14.38215 | 80.07483 | 37797 ft | 439 kts | 293° |
| 2026-04-19 21:39 | 14.41019 | 80.01882 | 37797 ft | 439 kts | 293° |
| 2026-04-19 21:39 | 14.43822 | 79.96280 | 37797 ft | 439 kts | 293° |
| 2026-04-19 21:40 | 14.48021 | 79.87880 | 37793 ft | 439 kts | 293° |
| 2026-04-19 21:41 | 14.50821 | 79.82274 | 37798 ft | 439 kts | 293° |
| 2026-04-19 21:41 | 14.53636 | 79.76634 | 37805 ft | 439 kts | 293° |
| 2026-04-19 21:42 | 14.56412 | 79.71068 | 37798 ft | 439 kts | 293° |
| 2026-04-19 21:42 | 14.59206 | 79.65460 | 37801 ft | 439 kts | 293° |
| 2026-04-19 21:43 | 14.61999 | 79.59853 | 37806 ft | 439 kts | 292° |
| 2026-04-19 21:43 | 14.64788 | 79.54248 | 37806 ft | 439 kts | 292° |
| 2026-04-19 21:44 | 14.67579 | 79.48635 | 37802 ft | 439 kts | 292° |
| 2026-04-19 21:44 | 14.69895 | 79.43974 | 37807 ft | 439 kts | 292° |
| 2026-04-19 21:45 | 14.72678 | 79.38370 | 37809 ft | 439 kts | 292° |
| 2026-04-19 21:45 | 14.75462 | 79.32760 | 37804 ft | 439 kts | 292° |
| 2026-04-19 21:46 | 14.78242 | 79.27152 | 37809 ft | 439 kts | 292° |
| 2026-04-19 21:46 | 14.81022 | 79.21541 | 37813 ft | 439 kts | 292° |
| 2026-04-19 21:47 | 14.83801 | 79.15929 | 37812 ft | 439 kts | 292° |
| 2026-04-19 21:47 | 14.86580 | 79.10311 | 37814 ft | 439 kts | 292° |
| 2026-04-19 21:48 | 14.89362 | 79.04685 | 37816 ft | 439 kts | 292° |
| 2026-04-19 21:48 | 14.92139 | 78.99062 | 37818 ft | 439 kts | 292° |
| 2026-04-19 21:49 | 14.94917 | 78.93435 | 37817 ft | 439 kts | 292° |
| 2026-04-19 21:49 | 14.97692 | 78.87810 | 37813 ft | 439 kts | 292° |
| 2026-04-19 21:50 | 15.00465 | 78.82184 | 37818 ft | 439 kts | 292° |
| 2026-04-19 21:50 | 15.03234 | 78.76560 | 37813 ft | 439 kts | 292° |
| 2026-04-19 21:51 | 15.06005 | 78.70929 | 37806 ft | 439 kts | 292° |
| 2026-04-19 21:51 | 15.08774 | 78.65299 | 37819 ft | 439 kts | 292° |
| 2026-04-19 21:52 | 15.11540 | 78.59669 | 37806 ft | 439 kts | 292° |
| 2026-04-19 21:52 | 15.14306 | 78.54037 | 37807 ft | 439 kts | 292° |
| 2026-04-19 21:53 | 15.17073 | 78.48395 | 37808 ft | 439 kts | 292° |
| 2026-04-19 21:53 | 15.19821 | 78.42790 | 37805 ft | 440 kts | 292° |
| 2026-04-19 21:54 | 15.22589 | 78.37141 | 37809 ft | 440 kts | 292° |
| 2026-04-19 21:54 | 15.25354 | 78.31490 | 37810 ft | 440 kts | 292° |
| 2026-04-19 21:55 | 15.28119 | 78.25836 | 37809 ft | 440 kts | 292° |
| 2026-04-19 21:55 | 15.30885 | 78.20176 | 37808 ft | 440 kts | 292° |
| 2026-04-19 21:56 | 15.33651 | 78.14512 | 37806 ft | 441 kts | 291° |
| 2026-04-19 21:56 | 15.36414 | 78.08848 | 37815 ft | 440 kts | 291° |
| 2026-04-19 21:57 | 15.39147 | 78.03177 | 37814 ft | 440 kts | 291° |
| 2026-04-19 21:57 | 15.41870 | 77.97499 | 37814 ft | 440 kts | 291° |
| 2026-04-19 21:58 | 15.44589 | 77.91830 | 37817 ft | 439 kts | 291° |
| 2026-04-19 21:58 | 15.47306 | 77.86165 | 37823 ft | 439 kts | 291° |
| 2026-04-19 21:59 | 15.50001 | 77.80545 | 37823 ft | 438 kts | 291° |
| 2026-04-19 21:59 | 15.52709 | 77.74891 | 37828 ft | 438 kts | 291° |
| 2026-04-19 22:00 | 15.55413 | 77.69241 | 37832 ft | 437 kts | 291° |
| 2026-04-19 22:00 | 15.58112 | 77.63597 | 37836 ft | 437 kts | 291° |
| 2026-04-19 22:01 | 15.60811 | 77.57948 | 37838 ft | 437 kts | 291° |
| 2026-04-19 22:01 | 15.63506 | 77.52304 | 37842 ft | 436 kts | 291° |
| 2026-04-19 22:02 | 15.66195 | 77.46666 | 37842 ft | 436 kts | 291° |
| 2026-04-19 22:02 | 15.68883 | 77.41028 | 37843 ft | 436 kts | 291° |
| 2026-04-19 22:03 | 15.71566 | 77.35396 | 37844 ft | 435 kts | 291° |
| 2026-04-19 22:03 | 15.74259 | 77.29765 | 37846 ft | 435 kts | 291° |
| 2026-04-19 22:04 | 15.76953 | 77.24147 | 37843 ft | 434 kts | 291° |
| 2026-04-19 22:04 | 15.79644 | 77.18528 | 37855 ft | 435 kts | 291° |
| 2026-04-19 22:05 | 15.82336 | 77.12898 | 37858 ft | 436 kts | 291° |
| 2026-04-19 22:05 | 15.85031 | 77.07258 | 37856 ft | 436 kts | 291° |
| 2026-04-19 22:06 | 15.87726 | 77.01613 | 37851 ft | 436 kts | 291° |
| 2026-04-19 22:06 | 15.90421 | 76.95963 | 37848 ft | 437 kts | 291° |
| 2026-04-19 22:07 | 15.93114 | 76.90313 | 37856 ft | 436 kts | 291° |
| 2026-04-19 22:07 | 15.95806 | 76.84659 | 37856 ft | 436 kts | 291° |
| 2026-04-19 22:08 | 15.98477 | 76.79045 | 37856 ft | 436 kts | 290° |
| 2026-04-19 22:08 | 16.01164 | 76.73393 | 37863 ft | 436 kts | 290° |
| 2026-04-19 22:09 | 16.03867 | 76.67704 | 37862 ft | 436 kts | 290° |
| 2026-04-19 22:09 | 16.06530 | 76.62094 | 37865 ft | 436 kts | 290° |
| 2026-04-19 22:10 | 16.09210 | 76.56442 | 37865 ft | 436 kts | 290° |
| 2026-04-19 22:10 | 16.11887 | 76.50793 | 37872 ft | 436 kts | 290° |
| 2026-04-19 22:11 | 16.14564 | 76.45139 | 37875 ft | 436 kts | 290° |
| 2026-04-19 22:11 | 16.17238 | 76.39486 | 37871 ft | 436 kts | 290° |
| 2026-04-19 22:12 | 16.19914 | 76.33825 | 37877 ft | 436 kts | 290° |
| 2026-04-19 22:12 | 16.22591 | 76.28156 | 37878 ft | 436 kts | 290° |
| 2026-04-19 22:13 | 16.25266 | 76.22486 | 37881 ft | 437 kts | 290° |
| 2026-04-19 22:13 | 16.27943 | 76.16808 | 37882 ft | 437 kts | 290° |
| 2026-04-19 22:14 | 16.30621 | 76.11124 | 37880 ft | 437 kts | 290° |
| 2026-04-19 22:14 | 16.33299 | 76.05433 | 37882 ft | 438 kts | 290° |
| 2026-04-19 22:15 | 16.35977 | 75.99739 | 37884 ft | 438 kts | 290° |
| 2026-04-19 22:15 | 16.38644 | 75.94039 | 37884 ft | 438 kts | 290° |
| 2026-04-19 22:16 | 16.41307 | 75.88327 | 37880 ft | 438 kts | 290° |
| 2026-04-19 22:16 | 16.43968 | 75.82615 | 37886 ft | 438 kts | 290° |
| 2026-04-19 22:17 | 16.46628 | 75.76901 | 37881 ft | 439 kts | 290° |
| 2026-04-19 22:17 | 16.49292 | 75.71177 | 37880 ft | 439 kts | 290° |
| 2026-04-19 22:18 | 16.51955 | 75.65449 | 37882 ft | 439 kts | 290° |
| 2026-04-19 22:18 | 16.54617 | 75.59719 | 37881 ft | 439 kts | 290° |
| 2026-04-19 22:19 | 16.57277 | 75.53985 | 37885 ft | 439 kts | 290° |
| 2026-04-19 22:19 | 16.59937 | 75.48249 | 37883 ft | 439 kts | 289° |
| 2026-04-19 22:20 | 16.62669 | 75.42543 | 37885 ft | 441 kts | 291° |
| 2026-04-19 22:20 | 16.65524 | 75.36929 | 37891 ft | 441 kts | 292° |
| 2026-04-19 22:21 | 16.68404 | 75.31280 | 37893 ft | 441 kts | 291° |
| 2026-04-19 22:21 | 16.71265 | 75.25617 | 37889 ft | 441 kts | 291° |
| 2026-04-19 22:22 | 16.74111 | 75.19956 | 37891 ft | 441 kts | 291° |
| 2026-04-19 22:22 | 16.76954 | 75.14291 | 37887 ft | 441 kts | 291° |
| 2026-04-19 22:23 | 16.79794 | 75.08626 | 37886 ft | 440 kts | 291° |
| 2026-04-19 22:23 | 16.82631 | 75.02963 | 37880 ft | 440 kts | 291° |
| 2026-04-19 22:24 | 16.85465 | 74.97301 | 37875 ft | 440 kts | 291° |
| 2026-04-19 22:24 | 16.88298 | 74.91638 | 37878 ft | 440 kts | 291° |
| 2026-04-19 22:25 | 16.91126 | 74.85980 | 37881 ft | 439 kts | 291° |
| 2026-04-19 22:25 | 16.93950 | 74.80325 | 37884 ft | 439 kts | 291° |
| 2026-04-19 22:26 | 16.96773 | 74.74667 | 37890 ft | 439 kts | 291° |
| 2026-04-19 22:26 | 16.99592 | 74.69010 | 37882 ft | 439 kts | 291° |
| 2026-04-19 22:27 | 17.02414 | 74.63345 | 37884 ft | 439 kts | 291° |
| 2026-04-19 22:27 | 17.05232 | 74.57681 | 37883 ft | 439 kts | 291° |
| 2026-04-19 22:28 | 17.08051 | 74.52013 | 37882 ft | 439 kts | 291° |
| 2026-04-19 22:28 | 17.10846 | 74.46385 | 37889 ft | 439 kts | 290° |
| 2026-04-19 22:29 | 17.13661 | 74.40715 | 37878 ft | 439 kts | 290° |
| 2026-04-19 22:29 | 17.16470 | 74.35050 | 37886 ft | 439 kts | 290° |
| 2026-04-19 22:30 | 17.19273 | 74.29393 | 37887 ft | 438 kts | 290° |
| 2026-04-19 22:30 | 17.22075 | 74.23737 | 37879 ft | 438 kts | 290° |
| 2026-04-19 22:31 | 17.24878 | 74.18093 | 37878 ft | 437 kts | 290° |
| 2026-04-19 22:31 | 17.27676 | 74.12455 | 37887 ft | 436 kts | 290° |
| 2026-04-19 22:32 | 17.30015 | 74.07738 | 37872 ft | 436 kts | 290° |
| 2026-04-19 22:32 | 17.33254 | 74.01197 | 37884 ft | 435 kts | 290° |
| 2026-04-19 22:33 | 17.35566 | 73.96522 | 37891 ft | 435 kts | 290° |
| 2026-04-19 22:33 | 17.38346 | 73.90897 | 37869 ft | 435 kts | 290° |
| 2026-04-19 22:34 | 17.41126 | 73.85269 | 37881 ft | 434 kts | 290° |
| 2026-04-19 22:34 | 17.43897 | 73.79653 | 37862 ft | 434 kts | 290° |
| 2026-04-19 22:35 | 17.46668 | 73.74032 | 37858 ft | 434 kts | 290° |
| 2026-04-19 22:35 | 17.49435 | 73.68415 | 37834 ft | 433 kts | 290° |
| 2026-04-19 22:36 | 17.52191 | 73.62823 | 37843 ft | 430 kts | 290° |
| 2026-04-19 22:36 | 17.54923 | 73.57265 | 37842 ft | 430 kts | 289° |
| 2026-04-19 22:37 | 17.57662 | 73.51683 | 37842 ft | 431 kts | 289° |
| 2026-04-19 22:37 | 17.60409 | 73.46085 | 37849 ft | 432 kts | 289° |
| 2026-04-19 22:38 | 17.63163 | 73.40469 | 37847 ft | 434 kts | 289° |
| 2026-04-19 22:38 | 17.65925 | 73.34832 | 37835 ft | 435 kts | 289° |
| 2026-04-19 22:39 | 17.68689 | 73.29187 | 37839 ft | 435 kts | 289° |
| 2026-04-19 22:39 | 17.71453 | 73.23536 | 37827 ft | 436 kts | 289° |
| 2026-04-19 22:40 | 17.74214 | 73.17883 | 37826 ft | 435 kts | 289° |
| 2026-04-19 22:40 | 17.76966 | 73.12240 | 37832 ft | 434 kts | 289° |
| 2026-04-19 22:41 | 17.79709 | 73.06604 | 37824 ft | 433 kts | 289° |
| 2026-04-19 22:41 | 17.82444 | 73.00983 | 37827 ft | 432 kts | 289° |
| 2026-04-19 22:42 | 17.85166 | 72.95383 | 37824 ft | 430 kts | 289° |
| 2026-04-19 22:42 | 17.87880 | 72.89792 | 37824 ft | 429 kts | 289° |
| 2026-04-19 22:43 | 17.90567 | 72.84251 | 37826 ft | 428 kts | 289° |
| 2026-04-19 22:43 | 17.93264 | 72.78686 | 37828 ft | 427 kts | 289° |
| 2026-04-19 22:44 | 17.95955 | 72.73128 | 37826 ft | 427 kts | 289° |
| 2026-04-19 22:44 | 17.98643 | 72.67571 | 37821 ft | 426 kts | 289° |
| 2026-04-19 22:45 | 18.01328 | 72.62016 | 37826 ft | 427 kts | 289° |
| 2026-04-19 22:45 | 18.04014 | 72.56454 | 37829 ft | 427 kts | 289° |
| 2026-04-19 22:46 | 18.06701 | 72.50884 | 37831 ft | 428 kts | 289° |
| 2026-04-19 22:46 | 18.09392 | 72.45301 | 37828 ft | 429 kts | 289° |
| 2026-04-19 22:47 | 18.12087 | 72.39705 | 37831 ft | 429 kts | 289° |
| 2026-04-19 22:47 | 18.14785 | 72.34098 | 37833 ft | 430 kts | 289° |
| 2026-04-19 22:48 | 18.17484 | 72.28484 | 37835 ft | 431 kts | 289° |
| 2026-04-19 22:48 | 18.20190 | 72.22851 | 37833 ft | 431 kts | 289° |
| 2026-04-19 22:49 | 18.22894 | 72.17217 | 37835 ft | 432 kts | 289° |
| 2026-04-19 22:49 | 18.25599 | 72.11575 | 37834 ft | 432 kts | 289° |
| 2026-04-19 22:50 | 18.28300 | 72.05935 | 37834 ft | 432 kts | 289° |
| 2026-04-19 22:50 | 18.31000 | 72.00295 | 37830 ft | 431 kts | 289° |
| 2026-04-19 22:51 | 18.33696 | 71.94656 | 37831 ft | 431 kts | 289° |
| 2026-04-19 22:51 | 18.37728 | 71.86213 | 37828 ft | 430 kts | 289° |
| 2026-04-19 22:52 | 18.40391 | 71.80630 | 37834 ft | 429 kts | 289° |
| 2026-04-19 22:52 | 18.43068 | 71.75012 | 37834 ft | 429 kts | 289° |
| 2026-04-19 22:53 | 18.45742 | 71.69396 | 37837 ft | 429 kts | 289° |
| 2026-04-19 22:53 | 18.48411 | 71.63785 | 37833 ft | 428 kts | 288° |
| 2026-04-19 22:54 | 18.51077 | 71.58175 | 37837 ft | 428 kts | 288° |
| 2026-04-19 22:54 | 18.53747 | 71.52549 | 37855 ft | 430 kts | 289° |
| 2026-04-19 22:55 | 18.56424 | 71.46903 | 37837 ft | 431 kts | 289° |
| 2026-04-19 22:55 | 18.59110 | 71.41236 | 37842 ft | 433 kts | 289° |
| 2026-04-19 22:56 | 18.61801 | 71.35554 | 37846 ft | 433 kts | 289° |
| 2026-04-19 22:56 | 18.64493 | 71.29862 | 37831 ft | 434 kts | 289° |
| 2026-04-19 22:57 | 18.67186 | 71.24165 | 37843 ft | 434 kts | 289° |
| 2026-04-19 22:57 | 18.69880 | 71.18458 | 37841 ft | 435 kts | 289° |
| 2026-04-19 22:58 | 18.72571 | 71.12752 | 37839 ft | 435 kts | 289° |
| 2026-04-19 22:58 | 18.75261 | 71.07045 | 37840 ft | 434 kts | 289° |
| 2026-04-19 22:59 | 18.77946 | 71.01341 | 37837 ft | 434 kts | 289° |
| 2026-04-19 22:59 | 18.80626 | 70.95643 | 37837 ft | 433 kts | 289° |
| 2026-04-19 23:00 | 18.83300 | 70.89952 | 37838 ft | 433 kts | 289° |
| 2026-04-19 23:00 | 18.85969 | 70.84265 | 37838 ft | 432 kts | 289° |
| 2026-04-19 23:01 | 18.88616 | 70.78621 | 37838 ft | 431 kts | 289° |
| 2026-04-19 23:01 | 18.91273 | 70.72948 | 37838 ft | 431 kts | 289° |
| 2026-04-19 23:02 | 18.93930 | 70.67271 | 37843 ft | 431 kts | 289° |
| 2026-04-19 23:02 | 18.96582 | 70.61599 | 37836 ft | 431 kts | 289° |
| 2026-04-19 23:03 | 18.99233 | 70.55923 | 37845 ft | 431 kts | 289° |
| 2026-04-19 23:03 | 19.01881 | 70.50247 | 37845 ft | 431 kts | 289° |
| 2026-04-19 23:04 | 19.04528 | 70.44571 | 37849 ft | 431 kts | 289° |
| 2026-04-19 23:04 | 19.07177 | 70.38882 | 37856 ft | 431 kts | 289° |
| 2026-04-19 23:05 | 19.09825 | 70.33190 | 37850 ft | 432 kts | 289° |
| 2026-04-19 23:05 | 19.12474 | 70.27493 | 37853 ft | 432 kts | 289° |
| 2026-04-19 23:06 | 19.15123 | 70.21788 | 37848 ft | 432 kts | 289° |
| 2026-04-19 23:06 | 19.17774 | 70.16073 | 37851 ft | 433 kts | 289° |
| 2026-04-19 23:07 | 19.20424 | 70.10356 | 37855 ft | 433 kts | 289° |
| 2026-04-19 23:07 | 19.23075 | 70.04630 | 37852 ft | 433 kts | 289° |
| 2026-04-19 23:08 | 19.25725 | 69.98900 | 37855 ft | 433 kts | 289° |
| 2026-04-19 23:08 | 19.28373 | 69.93169 | 37853 ft | 434 kts | 290° |
| 2026-04-19 23:09 | 19.31023 | 69.87431 | 37857 ft | 434 kts | 290° |
| 2026-04-19 23:09 | 19.33668 | 69.81694 | 37858 ft | 434 kts | 290° |
| 2026-04-19 23:10 | 19.36312 | 69.75954 | 37857 ft | 434 kts | 290° |
| 2026-04-19 23:10 | 19.38953 | 69.70216 | 37855 ft | 434 kts | 290° |
| 2026-04-19 23:11 | 19.41594 | 69.64472 | 37857 ft | 433 kts | 290° |
| 2026-04-19 23:11 | 19.44215 | 69.58766 | 37857 ft | 434 kts | 290° |
| 2026-04-19 23:12 | 19.46867 | 69.52984 | 37854 ft | 434 kts | 290° |
| 2026-04-19 23:12 | 19.49485 | 69.47272 | 37857 ft | 434 kts | 290° |
| 2026-04-19 23:13 | 19.52118 | 69.41523 | 37855 ft | 434 kts | 290° |
| 2026-04-19 23:13 | 19.54752 | 69.35764 | 37856 ft | 434 kts | 290° |
| 2026-04-19 23:14 | 19.57450 | 69.30032 | 37862 ft | 435 kts | 291° |
| 2026-04-19 23:14 | 19.60218 | 69.24321 | 37860 ft | 436 kts | 292° |
| 2026-04-19 23:15 | 19.62987 | 69.18603 | 37857 ft | 436 kts | 291° |
| 2026-04-19 23:15 | 19.65745 | 69.12878 | 37855 ft | 436 kts | 291° |
| 2026-04-19 23:16 | 19.68498 | 69.07143 | 37856 ft | 436 kts | 292° |
| 2026-04-19 23:16 | 19.71251 | 69.01399 | 37855 ft | 437 kts | 292° |
| 2026-04-19 23:17 | 19.74004 | 68.95649 | 37860 ft | 437 kts | 292° |
| 2026-04-19 23:17 | 19.76756 | 68.89897 | 37859 ft | 437 kts | 292° |
| 2026-04-19 23:18 | 19.79508 | 68.84138 | 37858 ft | 437 kts | 292° |
| 2026-04-19 23:18 | 19.82259 | 68.78376 | 37861 ft | 438 kts | 292° |
| 2026-04-19 23:19 | 19.84546 | 68.73583 | 37861 ft | 438 kts | 292° |
| 2026-04-19 23:19 | 19.87294 | 68.67814 | 37858 ft | 438 kts | 292° |
| 2026-04-19 23:20 | 19.90041 | 68.62044 | 37861 ft | 438 kts | 292° |
| 2026-04-19 23:20 | 19.92787 | 68.56270 | 37861 ft | 438 kts | 292° |
| 2026-04-19 23:21 | 19.95532 | 68.50493 | 37862 ft | 438 kts | 292° |
| 2026-04-19 23:21 | 19.98273 | 68.44718 | 37863 ft | 438 kts | 292° |
| 2026-04-19 23:22 | 20.01012 | 68.38940 | 37859 ft | 438 kts | 292° |
| 2026-04-19 23:22 | 20.03751 | 68.33158 | 37862 ft | 438 kts | 292° |
| 2026-04-19 23:23 | 20.06486 | 68.27376 | 37861 ft | 438 kts | 292° |
| 2026-04-19 23:23 | 20.09221 | 68.21591 | 37863 ft | 438 kts | 292° |
| 2026-04-19 23:24 | 20.11950 | 68.15809 | 37869 ft | 438 kts | 292° |
| 2026-04-19 23:24 | 20.14682 | 68.10018 | 37870 ft | 438 kts | 292° |
| 2026-04-19 23:25 | 20.17409 | 68.04231 | 37868 ft | 438 kts | 293° |
| 2026-04-19 23:25 | 20.20134 | 67.98440 | 37871 ft | 437 kts | 293° |
| 2026-04-19 23:26 | 20.22857 | 67.92650 | 37873 ft | 437 kts | 293° |
| 2026-04-19 23:26 | 20.25559 | 67.86897 | 37872 ft | 437 kts | 293° |
| 2026-04-19 23:27 | 20.28277 | 67.81104 | 37873 ft | 437 kts | 293° |
| 2026-04-19 23:27 | 20.30992 | 67.75312 | 37871 ft | 437 kts | 293° |
| 2026-04-19 23:28 | 20.33704 | 67.69519 | 37872 ft | 437 kts | 293° |
| 2026-04-19 23:28 | 20.36413 | 67.63727 | 37873 ft | 437 kts | 294° |
| 2026-04-19 23:29 | 20.39119 | 67.57936 | 37871 ft | 436 kts | 294° |
| 2026-04-19 23:29 | 20.41820 | 67.52149 | 37874 ft | 436 kts | 294° |
| 2026-04-19 23:30 | 20.44518 | 67.46362 | 37874 ft | 436 kts | 294° |
| 2026-04-19 23:30 | 20.47212 | 67.40578 | 37872 ft | 435 kts | 294° |
| 2026-04-19 23:31 | 20.49901 | 67.34798 | 37872 ft | 435 kts | 294° |
| 2026-04-19 23:31 | 20.52586 | 67.29021 | 37872 ft | 435 kts | 294° |
| 2026-04-19 23:32 | 20.55268 | 67.23244 | 37873 ft | 434 kts | 294° |
| 2026-04-19 23:32 | 20.57948 | 67.17464 | 37872 ft | 434 kts | 294° |
| 2026-04-19 23:33 | 20.60623 | 67.11690 | 37869 ft | 434 kts | 294° |
| 2026-04-19 23:33 | 20.63297 | 67.05912 | 37872 ft | 434 kts | 294° |
| 2026-04-19 23:34 | 20.65969 | 67.00133 | 37872 ft | 434 kts | 295° |
| 2026-04-19 23:34 | 20.68636 | 66.94357 | 37871 ft | 434 kts | 295° |
| 2026-04-19 23:35 | 20.71304 | 66.88574 | 37871 ft | 434 kts | 295° |
| 2026-04-19 23:35 | 20.73973 | 66.82780 | 37871 ft | 434 kts | 295° |
| 2026-04-19 23:36 | 20.76640 | 66.76986 | 37873 ft | 435 kts | 295° |
| 2026-04-19 23:36 | 20.79309 | 66.71183 | 37870 ft | 435 kts | 295° |
| 2026-04-19 23:37 | 20.81958 | 66.65415 | 37869 ft | 436 kts | 295° |
| 2026-04-19 23:37 | 20.84629 | 66.59593 | 37873 ft | 436 kts | 295° |
| 2026-04-19 23:38 | 20.87298 | 66.53768 | 37873 ft | 437 kts | 295° |
| 2026-04-19 23:38 | 20.89969 | 66.47934 | 37872 ft | 437 kts | 295° |
| 2026-04-19 23:39 | 20.92641 | 66.42091 | 37872 ft | 437 kts | 295° |
| 2026-04-19 23:39 | 20.95311 | 66.36246 | 37872 ft | 438 kts | 295° |
| 2026-04-19 23:40 | 20.97982 | 66.30392 | 37870 ft | 438 kts | 295° |
| 2026-04-19 23:40 | 21.00651 | 66.24536 | 37872 ft | 438 kts | 295° |
| 2026-04-19 23:41 | 21.03318 | 66.18677 | 37869 ft | 438 kts | 295° |
| 2026-04-19 23:41 | 21.05983 | 66.12816 | 37871 ft | 438 kts | 295° |
| 2026-04-19 23:42 | 21.08645 | 66.06957 | 37869 ft | 437 kts | 295° |
| 2026-04-19 23:42 | 21.11302 | 66.01102 | 37873 ft | 437 kts | 295° |
| 2026-04-19 23:43 | 21.13999 | 65.95268 | 37865 ft | 437 kts | 296° |
| 2026-04-19 23:43 | 21.16747 | 65.89470 | 37864 ft | 436 kts | 296° |
| 2026-04-19 23:44 | 21.19493 | 65.83673 | 37869 ft | 436 kts | 296° |
| 2026-04-19 23:44 | 21.22227 | 65.77875 | 37866 ft | 436 kts | 296° |
| 2026-04-19 23:45 | 21.24953 | 65.72076 | 37867 ft | 435 kts | 296° |
| 2026-04-19 23:45 | 21.27671 | 65.66285 | 37864 ft | 435 kts | 296° |
| 2026-04-19 23:46 | 21.30385 | 65.60495 | 37865 ft | 434 kts | 296° |
| 2026-04-19 23:46 | 21.33094 | 65.54710 | 37866 ft | 434 kts | 296° |
| 2026-04-19 23:47 | 21.35781 | 65.48966 | 37865 ft | 433 kts | 297° |
| 2026-04-19 23:47 | 21.38483 | 65.43186 | 37866 ft | 433 kts | 296° |
| 2026-04-19 23:48 | 21.41178 | 65.37413 | 37860 ft | 433 kts | 297° |
| 2026-04-19 23:48 | 21.43870 | 65.31640 | 37862 ft | 432 kts | 297° |
| 2026-04-19 23:49 | 21.46558 | 65.25868 | 37859 ft | 432 kts | 297° |
| 2026-04-19 23:49 | 21.49242 | 65.20099 | 37859 ft | 432 kts | 297° |
| 2026-04-19 23:50 | 21.51922 | 65.14334 | 37862 ft | 431 kts | 297° |
| 2026-04-19 23:50 | 21.54597 | 65.08571 | 37858 ft | 431 kts | 297° |
| 2026-04-19 23:51 | 21.57268 | 65.02810 | 37855 ft | 431 kts | 297° |
| 2026-04-19 23:51 | 21.59938 | 64.97048 | 37858 ft | 430 kts | 297° |
| 2026-04-19 23:52 | 21.62584 | 64.91327 | 37857 ft | 430 kts | 297° |
| 2026-04-19 23:52 | 21.65243 | 64.85575 | 37858 ft | 430 kts | 297° |
| 2026-04-19 23:53 | 21.67898 | 64.79824 | 37856 ft | 429 kts | 297° |
| 2026-04-19 23:53 | 21.70550 | 64.74073 | 37856 ft | 429 kts | 297° |
| 2026-04-19 23:54 | 21.73198 | 64.68324 | 37856 ft | 429 kts | 297° |
| 2026-04-19 23:54 | 21.75842 | 64.62577 | 37858 ft | 429 kts | 297° |
| 2026-04-19 23:55 | 21.78487 | 64.56823 | 37856 ft | 429 kts | 297° |
| 2026-04-19 23:55 | 21.81126 | 64.51074 | 37858 ft | 429 kts | 297° |
| 2026-04-19 23:56 | 21.83766 | 64.45319 | 37859 ft | 429 kts | 297° |
| 2026-04-19 23:56 | 21.86404 | 64.39560 | 37853 ft | 429 kts | 297° |
| 2026-04-19 23:57 | 21.89039 | 64.33800 | 37859 ft | 429 kts | 297° |
| 2026-04-19 23:57 | 21.91674 | 64.28035 | 37855 ft | 429 kts | 297° |
| 2026-04-19 23:58 | 21.94308 | 64.22264 | 37856 ft | 429 kts | 297° |
| 2026-04-19 23:58 | 21.96942 | 64.16488 | 37855 ft | 430 kts | 297° |
| 2026-04-19 23:59 | 21.99576 | 64.10706 | 37854 ft | 430 kts | 297° |
| 2026-04-19 23:59 | 22.02209 | 64.04918 | 37855 ft | 430 kts | 297° |
| 2026-04-20 00:00 | 22.04845 | 63.99118 | 37855 ft | 431 kts | 297° |
| 2026-04-20 00:00 | 22.07463 | 63.93349 | 37854 ft | 432 kts | 296° |
| 2026-04-20 00:01 | 22.10118 | 63.87493 | 37855 ft | 432 kts | 296° |
| 2026-04-20 00:02 | 22.14058 | 63.78792 | 37855 ft | 433 kts | 296° |
| 2026-04-20 00:02 | 22.16697 | 63.72954 | 37856 ft | 433 kts | 296° |
| 2026-04-20 00:03 | 22.19334 | 63.67114 | 37855 ft | 433 kts | 296° |
| 2026-04-20 00:03 | 22.21974 | 63.61261 | 37855 ft | 434 kts | 296° |
| 2026-04-20 00:04 | 22.24610 | 63.55409 | 37853 ft | 434 kts | 296° |
| 2026-04-20 00:04 | 22.27245 | 63.49553 | 37861 ft | 434 kts | 296° |
| 2026-04-20 00:05 | 22.29878 | 63.43694 | 37858 ft | 434 kts | 296° |
| 2026-04-20 00:05 | 22.32510 | 63.37830 | 37857 ft | 434 kts | 296° |
| 2026-04-20 00:06 | 22.35139 | 63.31967 | 37858 ft | 434 kts | 296° |
| 2026-04-20 00:06 | 22.37765 | 63.26102 | 37858 ft | 434 kts | 296° |
| 2026-04-20 00:07 | 22.40390 | 63.20233 | 37856 ft | 433 kts | 296° |
| 2026-04-20 00:07 | 22.42567 | 63.15360 | 37858 ft | 433 kts | 296° |
| 2026-04-20 00:08 | 22.45154 | 63.09479 | 37855 ft | 433 kts | 294° |
| 2026-04-20 00:08 | 22.47506 | 63.03489 | 37859 ft | 433 kts | 292° |
| 2026-04-20 00:09 | 22.50174 | 62.96501 | 37859 ft | 432 kts | 292° |
| 2026-04-20 00:09 | 22.52112 | 62.91476 | 37857 ft | 432 kts | 292° |
| 2026-04-20 00:10 | 22.54816 | 62.84513 | 37856 ft | 432 kts | 293° |
| 2026-04-20 00:10 | 22.56767 | 62.79500 | 37856 ft | 431 kts | 293° |
| 2026-04-20 00:11 | 22.59094 | 62.73516 | 37858 ft | 431 kts | 293° |
| 2026-04-20 00:11 | 22.61400 | 62.67575 | 37856 ft | 431 kts | 293° |
| 2026-04-20 00:12 | 22.63717 | 62.61598 | 37857 ft | 431 kts | 293° |
| 2026-04-20 00:12 | 22.66031 | 62.55622 | 37856 ft | 430 kts | 293° |
| 2026-04-20 00:13 | 22.68341 | 62.49647 | 37857 ft | 430 kts | 293° |
| 2026-04-20 00:13 | 22.70648 | 62.43673 | 37857 ft | 430 kts | 293° |
| 2026-04-20 00:14 | 22.72949 | 62.37705 | 37858 ft | 430 kts | 293° |
| 2026-04-20 00:14 | 22.75250 | 62.31732 | 37861 ft | 429 kts | 293° |
| 2026-04-20 00:15 | 22.77547 | 62.25760 | 37855 ft | 429 kts | 293° |
| 2026-04-20 00:15 | 22.79841 | 62.19786 | 37859 ft | 429 kts | 293° |
| 2026-04-20 00:16 | 22.82132 | 62.13815 | 37852 ft | 429 kts | 293° |
| 2026-04-20 00:16 | 22.84422 | 62.07838 | 37855 ft | 429 kts | 293° |
| 2026-04-20 00:17 | 22.86709 | 62.01863 | 37854 ft | 429 kts | 293° |
| 2026-04-20 00:17 | 22.88993 | 61.95885 | 37855 ft | 429 kts | 293° |
| 2026-04-20 00:18 | 22.91278 | 61.89898 | 37855 ft | 429 kts | 293° |
| 2026-04-20 00:18 | 22.93559 | 61.83912 | 37857 ft | 430 kts | 293° |
| 2026-04-20 00:19 | 22.95840 | 61.77920 | 37853 ft | 430 kts | 294° |
| 2026-04-20 00:19 | 22.98119 | 61.71925 | 37852 ft | 430 kts | 294° |
| 2026-04-20 00:20 | 23.00398 | 61.65921 | 37854 ft | 430 kts | 294° |
| 2026-04-20 00:20 | 23.02675 | 61.59915 | 37850 ft | 430 kts | 294° |
| 2026-04-20 00:21 | 23.04951 | 61.53902 | 37849 ft | 431 kts | 294° |
| 2026-04-20 00:21 | 23.07227 | 61.47883 | 37853 ft | 431 kts | 294° |
| 2026-04-20 00:22 | 23.09501 | 61.41860 | 37852 ft | 431 kts | 294° |
| 2026-04-20 00:22 | 23.11774 | 61.35833 | 37848 ft | 431 kts | 294° |
| 2026-04-20 00:23 | 23.14044 | 61.29803 | 37852 ft | 431 kts | 294° |
| 2026-04-20 00:23 | 23.16313 | 61.23770 | 37846 ft | 431 kts | 294° |
| 2026-04-20 00:24 | 23.18580 | 61.17734 | 37849 ft | 431 kts | 294° |
| 2026-04-20 00:24 | 23.20842 | 61.11703 | 37851 ft | 431 kts | 294° |
| 2026-04-20 00:25 | 23.23101 | 61.05671 | 37848 ft | 431 kts | 294° |
| 2026-04-20 00:25 | 23.25342 | 60.99680 | 37848 ft | 430 kts | 294° |
| 2026-04-20 00:26 | 23.27591 | 60.93658 | 37848 ft | 429 kts | 294° |
| 2026-04-20 00:26 | 23.29834 | 60.87644 | 37844 ft | 429 kts | 294° |
| 2026-04-20 00:27 | 23.32071 | 60.81638 | 37847 ft | 428 kts | 294° |
| 2026-04-20 00:27 | 23.34317 | 60.75600 | 37847 ft | 427 kts | 294° |
| 2026-04-20 00:28 | 23.36527 | 60.69652 | 37846 ft | 426 kts | 295° |
| 2026-04-20 00:28 | 23.38745 | 60.63671 | 37843 ft | 426 kts | 294° |
| 2026-04-20 00:29 | 23.40940 | 60.57693 | 37845 ft | 425 kts | 294° |
| 2026-04-20 00:29 | 23.43125 | 60.51717 | 37842 ft | 424 kts | 294° |
| 2026-04-20 00:30 | 23.45304 | 60.45748 | 37842 ft | 424 kts | 294° |
| 2026-04-20 00:30 | 23.47479 | 60.39787 | 37846 ft | 423 kts | 294° |
| 2026-04-20 00:31 | 23.49650 | 60.33833 | 37845 ft | 423 kts | 295° |
| 2026-04-20 00:31 | 23.51815 | 60.27883 | 37846 ft | 422 kts | 295° |
| 2026-04-20 00:32 | 23.53977 | 60.21938 | 37840 ft | 422 kts | 295° |
| 2026-04-20 00:32 | 23.56133 | 60.15996 | 37843 ft | 421 kts | 295° |
| 2026-04-20 00:33 | 23.58284 | 60.10063 | 37843 ft | 421 kts | 295° |
| 2026-04-20 00:33 | 23.60432 | 60.04131 | 37840 ft | 420 kts | 295° |
| 2026-04-20 00:34 | 23.62574 | 59.98206 | 37840 ft | 420 kts | 295° |
| 2026-04-20 00:34 | 23.64712 | 59.92283 | 37837 ft | 420 kts | 295° |
| 2026-04-20 00:35 | 23.66846 | 59.86363 | 37840 ft | 419 kts | 295° |
| 2026-04-20 00:35 | 23.68976 | 59.80449 | 37834 ft | 419 kts | 295° |
| 2026-04-20 00:36 | 23.71102 | 59.74534 | 37839 ft | 418 kts | 295° |
| 2026-04-20 00:36 | 23.73223 | 59.68627 | 37840 ft | 418 kts | 295° |
| 2026-04-20 00:37 | 23.75338 | 59.62726 | 37838 ft | 417 kts | 295° |
| 2026-04-20 00:37 | 23.77450 | 59.56829 | 37839 ft | 417 kts | 295° |
| 2026-04-20 00:38 | 23.79543 | 59.50973 | 37838 ft | 416 kts | 295° |
| 2026-04-20 00:38 | 23.81645 | 59.45086 | 37840 ft | 416 kts | 295° |
| 2026-04-20 00:39 | 23.83743 | 59.39203 | 37842 ft | 416 kts | 295° |
| 2026-04-20 00:39 | 23.85836 | 59.33323 | 37841 ft | 415 kts | 296° |
| 2026-04-20 00:40 | 23.87925 | 59.27448 | 37840 ft | 415 kts | 296° |
| 2026-04-20 00:40 | 23.90010 | 59.21576 | 37838 ft | 414 kts | 296° |
| 2026-04-20 00:41 | 23.92090 | 59.15709 | 37836 ft | 414 kts | 296° |
| 2026-04-20 00:41 | 23.94105 | 59.09818 | 37834 ft | 414 kts | 294° |
| 2026-04-20 00:42 | 23.95998 | 59.03873 | 37831 ft | 414 kts | 294° |
| 2026-04-20 00:42 | 23.97883 | 58.97933 | 37830 ft | 413 kts | 294° |
| 2026-04-20 00:43 | 23.99778 | 58.92003 | 37838 ft | 413 kts | 294° |
| 2026-04-20 00:43 | 24.01673 | 58.86086 | 37836 ft | 412 kts | 294° |
| 2026-04-20 00:44 | 24.03566 | 58.80170 | 37836 ft | 412 kts | 294° |
| 2026-04-20 00:44 | 24.05454 | 58.74262 | 37836 ft | 411 kts | 294° |
| 2026-04-20 00:45 | 24.07335 | 58.68362 | 37836 ft | 411 kts | 294° |
| 2026-04-20 00:45 | 24.09213 | 58.62465 | 37832 ft | 410 kts | 294° |
| 2026-04-20 00:46 | 24.11086 | 58.56574 | 37832 ft | 409 kts | 294° |
| 2026-04-20 00:46 | 24.12951 | 58.50690 | 37835 ft | 409 kts | 294° |
| 2026-04-20 00:47 | 24.14809 | 58.44814 | 37830 ft | 408 kts | 294° |
| 2026-04-20 00:47 | 24.16663 | 58.38940 | 37832 ft | 408 kts | 294° |
| 2026-04-20 00:48 | 24.18513 | 58.33073 | 37830 ft | 407 kts | 294° |
| 2026-04-20 00:48 | 24.20344 | 58.27254 | 37828 ft | 407 kts | 294° |
| 2026-04-20 00:49 | 24.22183 | 58.21403 | 37823 ft | 406 kts | 294° |
| 2026-04-20 00:49 | 24.24017 | 58.15559 | 37830 ft | 405 kts | 294° |
| 2026-04-20 00:50 | 24.25848 | 58.09718 | 37830 ft | 405 kts | 294° |
| 2026-04-20 00:50 | 24.27673 | 58.03883 | 37829 ft | 404 kts | 294° |
| 2026-04-20 00:51 | 24.29495 | 57.98054 | 37830 ft | 404 kts | 294° |
| 2026-04-20 00:51 | 24.31311 | 57.92231 | 37828 ft | 404 kts | 294° |
| 2026-04-20 00:52 | 24.33125 | 57.86408 | 37827 ft | 403 kts | 294° |
| 2026-04-20 00:52 | 24.34933 | 57.80594 | 37833 ft | 403 kts | 294° |
| 2026-04-20 00:53 | 24.36737 | 57.74786 | 37835 ft | 402 kts | 294° |
| 2026-04-20 00:53 | 24.38536 | 57.68982 | 37832 ft | 402 kts | 294° |
| 2026-04-20 00:54 | 24.40029 | 57.64158 | 37835 ft | 402 kts | 294° |
| 2026-04-20 00:54 | 24.42125 | 57.57379 | 37827 ft | 401 kts | 294° |
| 2026-04-20 00:55 | 24.43613 | 57.52562 | 37833 ft | 401 kts | 294° |
| 2026-04-20 00:55 | 24.45402 | 57.46766 | 37832 ft | 401 kts | 294° |
| 2026-04-20 00:56 | 24.47188 | 57.40979 | 37828 ft | 400 kts | 294° |
| 2026-04-20 00:56 | 24.48984 | 57.35159 | 37249 ft | 405 kts | 294° |
| 2026-04-20 00:56 | 24.49882 | 57.32241 | 36622 ft | 403 kts | 293° |
| 2026-04-20 00:57 | 24.50778 | 57.29323 | 35986 ft | 403 kts | 292° |
| 2026-04-20 00:57 | 24.51676 | 57.26401 | 35276 ft | 406 kts | 292° |
| 2026-04-20 00:57 | 24.52584 | 57.23445 | 34523 ft | 411 kts | 291° |
| 2026-04-20 00:57 | 24.53502 | 57.20457 | 33727 ft | 416 kts | 290° |
| 2026-04-20 00:58 | 24.54428 | 57.17435 | 32995 ft | 417 kts | 290° |
| 2026-04-20 00:58 | 24.55351 | 57.14416 | 32382 ft | 420 kts | 290° |
| 2026-04-20 00:58 | 24.56294 | 57.11337 | 31818 ft | 432 kts | 289° |
| 2026-04-20 00:58 | 24.57246 | 57.08221 | 31224 ft | 437 kts | 289° |
| 2026-04-20 00:59 | 24.58221 | 57.05029 | 30621 ft | 434 kts | 289° |
| 2026-04-20 00:59 | 24.59164 | 57.01938 | 30048 ft | 431 kts | 288° |
| 2026-04-20 00:59 | 24.60115 | 56.98817 | 29394 ft | 429 kts | 288° |
| 2026-04-20 00:59 | 24.61056 | 56.95725 | 28779 ft | 425 kts | 288° |
| 2026-04-20 01:00 | 24.61990 | 56.92660 | 28184 ft | 421 kts | 288° |
| 2026-04-20 01:00 | 24.62913 | 56.89624 | 27597 ft | 417 kts | 288° |
| 2026-04-20 01:00 | 24.63829 | 56.86614 | 26998 ft | 414 kts | 288° |
| 2026-04-20 01:00 | 24.64873 | 56.83682 | 26405 ft | 411 kts | 296° |
| 2026-04-20 01:01 | 24.66277 | 56.80972 | 25929 ft | 405 kts | 301° |
| 2026-04-20 01:01 | 24.67743 | 56.78348 | 25467 ft | 400 kts | 301° |
| 2026-04-20 01:01 | 24.69201 | 56.75763 | 24956 ft | 396 kts | 301° |
| 2026-04-20 01:01 | 24.70645 | 56.73191 | 24433 ft | 394 kts | 301° |
| 2026-04-20 01:02 | 24.72070 | 56.70633 | 23937 ft | 391 kts | 301° |
| 2026-04-20 01:02 | 24.73465 | 56.68112 | 23344 ft | 381 kts | 301° |
| 2026-04-20 01:02 | 24.74831 | 56.65633 | 22398 ft | 378 kts | 301° |
| 2026-04-20 01:02 | 24.76189 | 56.63161 | 21475 ft | 376 kts | 301° |
| 2026-04-20 01:03 | 24.77544 | 56.60690 | 20745 ft | 378 kts | 302° |
| 2026-04-20 01:03 | 24.78892 | 56.58232 | 20309 ft | 372 kts | 302° |
| 2026-04-20 01:03 | 24.80218 | 56.55812 | 19901 ft | 367 kts | 302° |
| 2026-04-20 01:03 | 24.81528 | 56.53419 | 19419 ft | 364 kts | 302° |
| 2026-04-20 01:04 | 24.82830 | 56.51043 | 18920 ft | 362 kts | 302° |
| 2026-04-20 01:04 | 24.84126 | 56.48676 | 18440 ft | 360 kts | 303° |
| 2026-04-20 01:04 | 24.85412 | 56.46325 | 17961 ft | 357 kts | 303° |
| 2026-04-20 01:04 | 24.86691 | 56.43992 | 17466 ft | 354 kts | 303° |
| 2026-04-20 01:05 | 24.87751 | 56.41553 | 16941 ft | 354 kts | 291° |
| 2026-04-20 01:05 | 24.88509 | 56.38985 | 16474 ft | 351 kts | 290° |
| 2026-04-20 01:05 | 24.89237 | 56.36424 | 15983 ft | 349 kts | 290° |
| 2026-04-20 01:05 | 24.89957 | 56.33883 | 15506 ft | 347 kts | 290° |
| 2026-04-20 01:06 | 24.90676 | 56.31355 | 15039 ft | 345 kts | 290° |
| 2026-04-20 01:06 | 24.91395 | 56.28848 | 14581 ft | 342 kts | 290° |
| 2026-04-20 01:06 | 24.92112 | 56.26357 | 14140 ft | 340 kts | 290° |
| 2026-04-20 01:06 | 24.92827 | 56.23885 | 13693 ft | 338 kts | 290° |
| 2026-04-20 01:07 | 24.93540 | 56.21426 | 13206 ft | 336 kts | 290° |
| 2026-04-20 01:07 | 24.94246 | 56.18987 | 12739 ft | 333 kts | 290° |
| 2026-04-20 01:07 | 24.94948 | 56.16564 | 12288 ft | 330 kts | 290° |
| 2026-04-20 01:07 | 24.95645 | 56.14161 | 11831 ft | 328 kts | 290° |
| 2026-04-20 01:08 | 24.96333 | 56.11783 | 11375 ft | 325 kts | 290° |
| 2026-04-20 01:08 | 24.97017 | 56.09419 | 10944 ft | 322 kts | 290° |
| 2026-04-20 01:08 | 24.97694 | 56.07078 | 10513 ft | 319 kts | 290° |
| 2026-04-20 01:08 | 24.98366 | 56.04757 | 10130 ft | 316 kts | 290° |
| 2026-04-20 01:09 | 24.99031 | 56.02458 | 9737 ft | 313 kts | 290° |
| 2026-04-20 01:09 | 24.99688 | 56.00182 | 9294 ft | 311 kts | 290° |
| 2026-04-20 01:09 | 25.00343 | 55.97915 | 8792 ft | 310 kts | 290° |
| 2026-04-20 01:09 | 25.00997 | 55.95650 | 8307 ft | 310 kts | 290° |
| 2026-04-20 01:10 | 25.01647 | 55.93393 | 7845 ft | 308 kts | 290° |
| 2026-04-20 01:10 | 25.02943 | 55.88897 | 6928 ft | 307 kts | 290° |
| 2026-04-20 01:10 | 25.03587 | 55.86657 | 6472 ft | 306 kts | 289° |
| 2026-04-20 01:11 | 25.04230 | 55.84422 | 6010 ft | 306 kts | 289° |
| 2026-04-20 01:11 | 25.04870 | 55.82192 | 5584 ft | 304 kts | 289° |
| 2026-04-20 01:11 | 25.05495 | 55.80016 | 5171 ft | 301 kts | 289° |
| 2026-04-20 01:11 | 25.06125 | 55.77820 | 4751 ft | 299 kts | 289° |
| 2026-04-20 01:12 | 25.06751 | 55.75638 | 4331 ft | 298 kts | 289° |
| 2026-04-20 01:12 | 25.07372 | 55.73470 | 3951 ft | 296 kts | 289° |
| 2026-04-20 01:12 | 25.07987 | 55.71324 | 3896 ft | 300 kts | 289° |
| 2026-04-20 01:12 | 25.08616 | 55.69131 | 3861 ft | 299 kts | 289° |
| 2026-04-20 01:13 | 25.09236 | 55.66962 | 3853 ft | 295 kts | 289° |
| 2026-04-20 01:13 | 25.09854 | 55.64802 | 3852 ft | 296 kts | 289° |
| 2026-04-20 01:13 | 25.10591 | 55.62693 | 3851 ft | 294 kts | 299° |
| 2026-04-20 01:13 | 25.11645 | 55.60758 | 3861 ft | 294 kts | 303° |
| 2026-04-20 01:14 | 25.12757 | 55.58856 | 3857 ft | 295 kts | 303° |
| 2026-04-20 01:14 | 25.13857 | 55.56947 | 3860 ft | 295 kts | 303° |
| 2026-04-20 01:14 | 25.14950 | 55.55028 | 3858 ft | 295 kts | 303° |
| 2026-04-20 01:14 | 25.16028 | 55.53105 | 3860 ft | 294 kts | 302° |
| 2026-04-20 01:15 | 25.17100 | 55.51183 | 3849 ft | 294 kts | 302° |
| 2026-04-20 01:15 | 25.18168 | 55.49262 | 3852 ft | 293 kts | 302° |
| 2026-04-20 01:15 | 25.19230 | 55.47350 | 3853 ft | 290 kts | 302° |
| 2026-04-20 01:15 | 25.20115 | 55.45414 | 3833 ft | 276 kts | 286° |